<?xml version="1.0" encoding="UTF-8" standalone="no" ?>
<gpx xmlns="http://www.topografix.com/GPX/1/1" xmlns:xsi="http://www.w3.org/2001/XMLSchema-instance" xsi:schemaLocation="http://www.topografix.com/GPX/1/1 http://www.topografix.com/GPX/1/1/gpx.xsd" version="1.1" creator="VisuGPX - https://www.visugpx.com">
  <metadata>
    <name>Col de Charnier et lac du Lauzon depuis Lachaup</name>
  </metadata>
  <trk>
    <name><![CDATA[10/08/2021 08:53:56 Col de Charnier et lac du Lauzon depuis Lachaup]]></name>
    <extensions>
      <line xmlns="http://www.topografix.com/GPX/gpx_style/0/2">
        <color>0000FF</color>
        <width>4</width>
      </line>
    </extensions>
    <trkseg>
      <trkpt lat="44.69205" lon="5.86367">
        <ele>1396</ele>
        <time>2021-08-10T06:53:56Z</time>
      </trkpt>
      <trkpt lat="44.69205" lon="5.86368">
        <ele>1396</ele>
        <time>2021-08-10T06:53:57Z</time>
      </trkpt>
      <trkpt lat="44.69206" lon="5.86369">
        <ele>1395.8000488281</ele>
        <time>2021-08-10T06:53:59Z</time>
      </trkpt>
      <trkpt lat="44.69212" lon="5.86372">
        <ele>1395.8000488281</ele>
        <time>2021-08-10T06:54:05Z</time>
      </trkpt>
      <trkpt lat="44.6922" lon="5.86372">
        <ele>1395.5999755859</ele>
        <time>2021-08-10T06:54:11Z</time>
      </trkpt>
      <trkpt lat="44.69234" lon="5.86373">
        <ele>1395.8000488281</ele>
        <time>2021-08-10T06:54:28Z</time>
      </trkpt>
      <trkpt lat="44.69243" lon="5.86381">
        <ele>1395.8000488281</ele>
        <time>2021-08-10T06:54:42Z</time>
      </trkpt>
      <trkpt lat="44.69251" lon="5.86382">
        <ele>1396</ele>
        <time>2021-08-10T06:54:45Z</time>
      </trkpt>
      <trkpt lat="44.69279" lon="5.86405">
        <ele>1395</ele>
        <time>2021-08-10T06:55:05Z</time>
      </trkpt>
      <trkpt lat="44.69299" lon="5.86413">
        <ele>1394</ele>
        <time>2021-08-10T06:55:23Z</time>
      </trkpt>
      <trkpt lat="44.69309" lon="5.86394">
        <ele>1394.4000244141</ele>
        <time>2021-08-10T06:55:40Z</time>
      </trkpt>
      <trkpt lat="44.6932" lon="5.86375">
        <ele>1396.4000244141</ele>
        <time>2021-08-10T06:55:58Z</time>
      </trkpt>
      <trkpt lat="44.69321" lon="5.86374">
        <ele>1396.4000244141</ele>
        <time>2021-08-10T06:55:59Z</time>
      </trkpt>
      <trkpt lat="44.6934" lon="5.86367">
        <ele>1398</ele>
        <time>2021-08-10T06:56:18Z</time>
      </trkpt>
      <trkpt lat="44.69358" lon="5.86368">
        <ele>1399.8000488281</ele>
        <time>2021-08-10T06:56:35Z</time>
      </trkpt>
      <trkpt lat="44.69373" lon="5.86368">
        <ele>1400.5999755859</ele>
        <time>2021-08-10T06:56:49Z</time>
      </trkpt>
      <trkpt lat="44.69394" lon="5.86358">
        <ele>1400.8000488281</ele>
        <time>2021-08-10T06:57:08Z</time>
      </trkpt>
      <trkpt lat="44.69412" lon="5.86348">
        <ele>1401.4000244141</ele>
        <time>2021-08-10T06:57:28Z</time>
      </trkpt>
      <trkpt lat="44.69432" lon="5.86338">
        <ele>1402.8000488281</ele>
        <time>2021-08-10T06:57:50Z</time>
      </trkpt>
      <trkpt lat="44.69433" lon="5.86337">
        <ele>1403</ele>
        <time>2021-08-10T06:57:51Z</time>
      </trkpt>
      <trkpt lat="44.69453" lon="5.86333">
        <ele>1404.5999755859</ele>
        <time>2021-08-10T06:58:12Z</time>
      </trkpt>
      <trkpt lat="44.69469" lon="5.86326">
        <ele>1405.8000488281</ele>
        <time>2021-08-10T06:58:29Z</time>
      </trkpt>
      <trkpt lat="44.69479" lon="5.86324">
        <ele>1406.5999755859</ele>
        <time>2021-08-10T06:58:39Z</time>
      </trkpt>
      <trkpt lat="44.69482" lon="5.86324">
        <ele>1407</ele>
        <time>2021-08-10T06:58:42Z</time>
      </trkpt>
      <trkpt lat="44.69502" lon="5.86325">
        <ele>1408.8000488281</ele>
        <time>2021-08-10T06:59:02Z</time>
      </trkpt>
      <trkpt lat="44.69517" lon="5.8633">
        <ele>1410.5999755859</ele>
        <time>2021-08-10T06:59:21Z</time>
      </trkpt>
      <trkpt lat="44.69532" lon="5.86327">
        <ele>1413.8000488281</ele>
        <time>2021-08-10T06:59:46Z</time>
      </trkpt>
      <trkpt lat="44.69555" lon="5.86327">
        <ele>1416.5999755859</ele>
        <time>2021-08-10T07:00:12Z</time>
      </trkpt>
      <trkpt lat="44.69562" lon="5.86329">
        <ele>1417.4000244141</ele>
        <time>2021-08-10T07:00:27Z</time>
      </trkpt>
      <trkpt lat="44.69577" lon="5.86332">
        <ele>1417.5999755859</ele>
        <time>2021-08-10T07:00:43Z</time>
      </trkpt>
      <trkpt lat="44.69595" lon="5.86331">
        <ele>1418.5999755859</ele>
        <time>2021-08-10T07:01:01Z</time>
      </trkpt>
      <trkpt lat="44.6961" lon="5.86335">
        <ele>1420.4000244141</ele>
        <time>2021-08-10T07:01:21Z</time>
      </trkpt>
      <trkpt lat="44.6963" lon="5.86336">
        <ele>1423.4000244141</ele>
        <time>2021-08-10T07:01:47Z</time>
      </trkpt>
      <trkpt lat="44.69648" lon="5.86332">
        <ele>1425.8000488281</ele>
        <time>2021-08-10T07:02:07Z</time>
      </trkpt>
      <trkpt lat="44.69663" lon="5.86329">
        <ele>1427.5999755859</ele>
        <time>2021-08-10T07:02:26Z</time>
      </trkpt>
      <trkpt lat="44.69683" lon="5.86326">
        <ele>1429.4000244141</ele>
        <time>2021-08-10T07:02:48Z</time>
      </trkpt>
      <trkpt lat="44.69705" lon="5.86331">
        <ele>1432.1999511719</ele>
        <time>2021-08-10T07:03:15Z</time>
      </trkpt>
      <trkpt lat="44.69726" lon="5.86337">
        <ele>1435</ele>
        <time>2021-08-10T07:03:41Z</time>
      </trkpt>
      <trkpt lat="44.69736" lon="5.86338">
        <ele>1436.5999755859</ele>
        <time>2021-08-10T07:04:04Z</time>
      </trkpt>
      <trkpt lat="44.69747" lon="5.86339">
        <ele>1437.5999755859</ele>
        <time>2021-08-10T07:04:40Z</time>
      </trkpt>
      <trkpt lat="44.69769" lon="5.86346">
        <ele>1439.4000244141</ele>
        <time>2021-08-10T07:05:06Z</time>
      </trkpt>
      <trkpt lat="44.69785" lon="5.86349">
        <ele>1441.1999511719</ele>
        <time>2021-08-10T07:05:22Z</time>
      </trkpt>
      <trkpt lat="44.69802" lon="5.86352">
        <ele>1442.8000488281</ele>
        <time>2021-08-10T07:05:38Z</time>
      </trkpt>
      <trkpt lat="44.69805" lon="5.86356">
        <ele>1443</ele>
        <time>2021-08-10T07:06:08Z</time>
      </trkpt>
      <trkpt lat="44.69826" lon="5.86352">
        <ele>1442.5999755859</ele>
        <time>2021-08-10T07:06:30Z</time>
      </trkpt>
      <trkpt lat="44.69842" lon="5.86356">
        <ele>1442.8000488281</ele>
        <time>2021-08-10T07:06:46Z</time>
      </trkpt>
      <trkpt lat="44.69862" lon="5.86354">
        <ele>1443.8000488281</ele>
        <time>2021-08-10T07:07:04Z</time>
      </trkpt>
      <trkpt lat="44.69874" lon="5.86357">
        <ele>1443.8000488281</ele>
        <time>2021-08-10T07:07:14Z</time>
      </trkpt>
      <trkpt lat="44.69884" lon="5.8636">
        <ele>1444</ele>
        <time>2021-08-10T07:07:23Z</time>
      </trkpt>
      <trkpt lat="44.69911" lon="5.86379">
        <ele>1444.5999755859</ele>
        <time>2021-08-10T07:07:47Z</time>
      </trkpt>
      <trkpt lat="44.69934" lon="5.86399">
        <ele>1444.4000244141</ele>
        <time>2021-08-10T07:08:06Z</time>
      </trkpt>
      <trkpt lat="44.69951" lon="5.86413">
        <ele>1444</ele>
        <time>2021-08-10T07:08:22Z</time>
      </trkpt>
      <trkpt lat="44.69964" lon="5.86426">
        <ele>1443.8000488281</ele>
        <time>2021-08-10T07:08:38Z</time>
      </trkpt>
      <trkpt lat="44.69979" lon="5.86436">
        <ele>1443.5999755859</ele>
        <time>2021-08-10T07:08:58Z</time>
      </trkpt>
      <trkpt lat="44.69997" lon="5.86443">
        <ele>1443.1999511719</ele>
        <time>2021-08-10T07:09:33Z</time>
      </trkpt>
      <trkpt lat="44.70006" lon="5.86447">
        <ele>1442.8000488281</ele>
        <time>2021-08-10T07:10:05Z</time>
      </trkpt>
      <trkpt lat="44.70029" lon="5.86453">
        <ele>1442.4000244141</ele>
        <time>2021-08-10T07:10:27Z</time>
      </trkpt>
      <trkpt lat="44.70044" lon="5.86457">
        <ele>1442.4000244141</ele>
        <time>2021-08-10T07:10:36Z</time>
      </trkpt>
      <trkpt lat="44.70065" lon="5.8646">
        <ele>1443</ele>
        <time>2021-08-10T07:10:51Z</time>
      </trkpt>
      <trkpt lat="44.70082" lon="5.86467">
        <ele>1443.5999755859</ele>
        <time>2021-08-10T07:11:06Z</time>
      </trkpt>
      <trkpt lat="44.70098" lon="5.86466">
        <ele>1444.1999511719</ele>
        <time>2021-08-10T07:11:21Z</time>
      </trkpt>
      <trkpt lat="44.70111" lon="5.86467">
        <ele>1445</ele>
        <time>2021-08-10T07:11:34Z</time>
      </trkpt>
      <trkpt lat="44.7013" lon="5.86467">
        <ele>1446.4000244141</ele>
        <time>2021-08-10T07:11:51Z</time>
      </trkpt>
      <trkpt lat="44.70134" lon="5.86469">
        <ele>1446.8000488281</ele>
        <time>2021-08-10T07:11:55Z</time>
      </trkpt>
      <trkpt lat="44.70154" lon="5.86478">
        <ele>1448.1999511719</ele>
        <time>2021-08-10T07:12:15Z</time>
      </trkpt>
      <trkpt lat="44.70175" lon="5.86483">
        <ele>1450</ele>
        <time>2021-08-10T07:12:36Z</time>
      </trkpt>
      <trkpt lat="44.70181" lon="5.86486">
        <ele>1450.5999755859</ele>
        <time>2021-08-10T07:12:42Z</time>
      </trkpt>
      <trkpt lat="44.70187" lon="5.8649">
        <ele>1451.1999511719</ele>
        <time>2021-08-10T07:12:49Z</time>
      </trkpt>
      <trkpt lat="44.70193" lon="5.86495">
        <ele>1452.8000488281</ele>
        <time>2021-08-10T07:13:07Z</time>
      </trkpt>
      <trkpt lat="44.70204" lon="5.86489">
        <ele>1453.5999755859</ele>
        <time>2021-08-10T07:13:22Z</time>
      </trkpt>
      <trkpt lat="44.70206" lon="5.86486">
        <ele>1453.8000488281</ele>
        <time>2021-08-10T07:13:25Z</time>
      </trkpt>
      <trkpt lat="44.70209" lon="5.8648">
        <ele>1454.5999755859</ele>
        <time>2021-08-10T07:13:30Z</time>
      </trkpt>
      <trkpt lat="44.70213" lon="5.86467">
        <ele>1455.5999755859</ele>
        <time>2021-08-10T07:13:41Z</time>
      </trkpt>
      <trkpt lat="44.70211" lon="5.8647">
        <ele>1456.5999755859</ele>
        <time>2021-08-10T07:14:06Z</time>
      </trkpt>
      <trkpt lat="44.70201" lon="5.86491">
        <ele>1455.5999755859</ele>
        <time>2021-08-10T07:14:24Z</time>
      </trkpt>
      <trkpt lat="44.70198" lon="5.86495">
        <ele>1455.4000244141</ele>
        <time>2021-08-10T07:14:29Z</time>
      </trkpt>
      <trkpt lat="44.70206" lon="5.86511">
        <ele>1453.8000488281</ele>
        <time>2021-08-10T07:14:43Z</time>
      </trkpt>
      <trkpt lat="44.70224" lon="5.86523">
        <ele>1454</ele>
        <time>2021-08-10T07:15:00Z</time>
      </trkpt>
      <trkpt lat="44.70241" lon="5.86526">
        <ele>1454.8000488281</ele>
        <time>2021-08-10T07:15:13Z</time>
      </trkpt>
      <trkpt lat="44.70264" lon="5.86523">
        <ele>1456.8000488281</ele>
        <time>2021-08-10T07:15:35Z</time>
      </trkpt>
      <trkpt lat="44.70289" lon="5.8652">
        <ele>1457.5999755859</ele>
        <time>2021-08-10T07:15:55Z</time>
      </trkpt>
      <trkpt lat="44.70309" lon="5.86528">
        <ele>1458</ele>
        <time>2021-08-10T07:16:11Z</time>
      </trkpt>
      <trkpt lat="44.70329" lon="5.86533">
        <ele>1459</ele>
        <time>2021-08-10T07:16:28Z</time>
      </trkpt>
      <trkpt lat="44.70352" lon="5.86527">
        <ele>1459.8000488281</ele>
        <time>2021-08-10T07:16:45Z</time>
      </trkpt>
      <trkpt lat="44.70376" lon="5.86521">
        <ele>1460.8000488281</ele>
        <time>2021-08-10T07:17:10Z</time>
      </trkpt>
      <trkpt lat="44.70405" lon="5.86521">
        <ele>1460</ele>
        <time>2021-08-10T07:17:31Z</time>
      </trkpt>
      <trkpt lat="44.70418" lon="5.86525">
        <ele>1459.5999755859</ele>
        <time>2021-08-10T07:17:42Z</time>
      </trkpt>
      <trkpt lat="44.70427" lon="5.86528">
        <ele>1459.4000244141</ele>
        <time>2021-08-10T07:17:56Z</time>
      </trkpt>
      <trkpt lat="44.70428" lon="5.86528">
        <ele>1459.4000244141</ele>
        <time>2021-08-10T07:17:57Z</time>
      </trkpt>
      <trkpt lat="44.70431" lon="5.86523">
        <ele>1459.4000244141</ele>
        <time>2021-08-10T07:18:00Z</time>
      </trkpt>
      <trkpt lat="44.70441" lon="5.8651">
        <ele>1458.8000488281</ele>
        <time>2021-08-10T07:18:10Z</time>
      </trkpt>
      <trkpt lat="44.70449" lon="5.86493">
        <ele>1458</ele>
        <time>2021-08-10T07:18:23Z</time>
      </trkpt>
      <trkpt lat="44.70464" lon="5.86476">
        <ele>1456.1999511719</ele>
        <time>2021-08-10T07:18:36Z</time>
      </trkpt>
      <trkpt lat="44.70471" lon="5.86473">
        <ele>1455.4000244141</ele>
        <time>2021-08-10T07:18:52Z</time>
      </trkpt>
      <trkpt lat="44.70488" lon="5.86463">
        <ele>1455</ele>
        <time>2021-08-10T07:19:12Z</time>
      </trkpt>
      <trkpt lat="44.70492" lon="5.86462">
        <ele>1455</ele>
        <time>2021-08-10T07:19:15Z</time>
      </trkpt>
      <trkpt lat="44.70499" lon="5.86458">
        <ele>1455.1999511719</ele>
        <time>2021-08-10T07:19:37Z</time>
      </trkpt>
      <trkpt lat="44.70484" lon="5.86464">
        <ele>1455.4000244141</ele>
        <time>2021-08-10T07:19:55Z</time>
      </trkpt>
      <trkpt lat="44.70483" lon="5.86465">
        <ele>1455.4000244141</ele>
        <time>2021-08-10T07:19:56Z</time>
      </trkpt>
      <trkpt lat="44.7048" lon="5.86467">
        <ele>1455.4000244141</ele>
        <time>2021-08-10T07:19:59Z</time>
      </trkpt>
      <trkpt lat="44.70473" lon="5.86469">
        <ele>1455.5999755859</ele>
        <time>2021-08-10T07:20:07Z</time>
      </trkpt>
      <trkpt lat="44.70468" lon="5.86472">
        <ele>1455.5999755859</ele>
        <time>2021-08-10T07:20:12Z</time>
      </trkpt>
      <trkpt lat="44.70466" lon="5.86474">
        <ele>1455.5999755859</ele>
        <time>2021-08-10T07:20:14Z</time>
      </trkpt>
      <trkpt lat="44.7045" lon="5.86492">
        <ele>1456</ele>
        <time>2021-08-10T07:20:32Z</time>
      </trkpt>
      <trkpt lat="44.70448" lon="5.86495">
        <ele>1456.1999511719</ele>
        <time>2021-08-10T07:20:34Z</time>
      </trkpt>
      <trkpt lat="44.70438" lon="5.86511">
        <ele>1457.4000244141</ele>
        <time>2021-08-10T07:20:50Z</time>
      </trkpt>
      <trkpt lat="44.70429" lon="5.86523">
        <ele>1458.8000488281</ele>
        <time>2021-08-10T07:21:05Z</time>
      </trkpt>
      <trkpt lat="44.70423" lon="5.86511">
        <ele>1460</ele>
        <time>2021-08-10T07:21:22Z</time>
      </trkpt>
      <trkpt lat="44.70423" lon="5.86509">
        <ele>1460.1999511719</ele>
        <time>2021-08-10T07:21:24Z</time>
      </trkpt>
      <trkpt lat="44.70425" lon="5.86487">
        <ele>1462.4000244141</ele>
        <time>2021-08-10T07:21:41Z</time>
      </trkpt>
      <trkpt lat="44.70421" lon="5.86473">
        <ele>1465.5999755859</ele>
        <time>2021-08-10T07:21:59Z</time>
      </trkpt>
      <trkpt lat="44.70412" lon="5.86461">
        <ele>1467.8000488281</ele>
        <time>2021-08-10T07:22:25Z</time>
      </trkpt>
      <trkpt lat="44.70409" lon="5.86444">
        <ele>1470.8000488281</ele>
        <time>2021-08-10T07:22:45Z</time>
      </trkpt>
      <trkpt lat="44.70404" lon="5.86424">
        <ele>1474</ele>
        <time>2021-08-10T07:23:05Z</time>
      </trkpt>
      <trkpt lat="44.70401" lon="5.86412">
        <ele>1477</ele>
        <time>2021-08-10T07:23:21Z</time>
      </trkpt>
      <trkpt lat="44.70397" lon="5.86393">
        <ele>1480.1999511719</ele>
        <time>2021-08-10T07:23:39Z</time>
      </trkpt>
      <trkpt lat="44.704" lon="5.86373">
        <ele>1483.1999511719</ele>
        <time>2021-08-10T07:23:58Z</time>
      </trkpt>
      <trkpt lat="44.70397" lon="5.86358">
        <ele>1486.1999511719</ele>
        <time>2021-08-10T07:24:23Z</time>
      </trkpt>
      <trkpt lat="44.70399" lon="5.86333">
        <ele>1489.4000244141</ele>
        <time>2021-08-10T07:24:45Z</time>
      </trkpt>
      <trkpt lat="44.70398" lon="5.8631">
        <ele>1492.4000244141</ele>
        <time>2021-08-10T07:25:05Z</time>
      </trkpt>
      <trkpt lat="44.70398" lon="5.86292">
        <ele>1495.4000244141</ele>
        <time>2021-08-10T07:25:26Z</time>
      </trkpt>
      <trkpt lat="44.70406" lon="5.86271">
        <ele>1498.5999755859</ele>
        <time>2021-08-10T07:25:49Z</time>
      </trkpt>
      <trkpt lat="44.70413" lon="5.86254">
        <ele>1501.5999755859</ele>
        <time>2021-08-10T07:26:12Z</time>
      </trkpt>
      <trkpt lat="44.70418" lon="5.86238">
        <ele>1504.5999755859</ele>
        <time>2021-08-10T07:26:31Z</time>
      </trkpt>
      <trkpt lat="44.70418" lon="5.8622">
        <ele>1507.8000488281</ele>
        <time>2021-08-10T07:26:48Z</time>
      </trkpt>
      <trkpt lat="44.7042" lon="5.86203">
        <ele>1510.8000488281</ele>
        <time>2021-08-10T07:27:07Z</time>
      </trkpt>
      <trkpt lat="44.70423" lon="5.86194">
        <ele>1513.4000244141</ele>
        <time>2021-08-10T07:27:31Z</time>
      </trkpt>
      <trkpt lat="44.70429" lon="5.86187">
        <ele>1513.5999755859</ele>
        <time>2021-08-10T07:27:38Z</time>
      </trkpt>
      <trkpt lat="44.7044" lon="5.86176">
        <ele>1515.5999755859</ele>
        <time>2021-08-10T07:27:53Z</time>
      </trkpt>
      <trkpt lat="44.70449" lon="5.86164">
        <ele>1517.5999755859</ele>
        <time>2021-08-10T07:28:09Z</time>
      </trkpt>
      <trkpt lat="44.70457" lon="5.8615">
        <ele>1520.5999755859</ele>
        <time>2021-08-10T07:28:26Z</time>
      </trkpt>
      <trkpt lat="44.70463" lon="5.86138">
        <ele>1522.8000488281</ele>
        <time>2021-08-10T07:28:41Z</time>
      </trkpt>
      <trkpt lat="44.70472" lon="5.86139">
        <ele>1525.1999511719</ele>
        <time>2021-08-10T07:29:02Z</time>
      </trkpt>
      <trkpt lat="44.70484" lon="5.86139">
        <ele>1527.5999755859</ele>
        <time>2021-08-10T07:29:22Z</time>
      </trkpt>
      <trkpt lat="44.70497" lon="5.86129">
        <ele>1530.5999755859</ele>
        <time>2021-08-10T07:29:42Z</time>
      </trkpt>
      <trkpt lat="44.705" lon="5.86104">
        <ele>1533.4000244141</ele>
        <time>2021-08-10T07:30:07Z</time>
      </trkpt>
      <trkpt lat="44.70504" lon="5.86083">
        <ele>1535.8000488281</ele>
        <time>2021-08-10T07:30:27Z</time>
      </trkpt>
      <trkpt lat="44.705" lon="5.86062">
        <ele>1539</ele>
        <time>2021-08-10T07:30:47Z</time>
      </trkpt>
      <trkpt lat="44.70496" lon="5.86043">
        <ele>1542</ele>
        <time>2021-08-10T07:31:09Z</time>
      </trkpt>
      <trkpt lat="44.70492" lon="5.86018">
        <ele>1543.1999511719</ele>
        <time>2021-08-10T07:31:30Z</time>
      </trkpt>
      <trkpt lat="44.70483" lon="5.8599">
        <ele>1545</ele>
        <time>2021-08-10T07:31:51Z</time>
      </trkpt>
      <trkpt lat="44.70477" lon="5.85977">
        <ele>1548</ele>
        <time>2021-08-10T07:32:10Z</time>
      </trkpt>
      <trkpt lat="44.70463" lon="5.8596">
        <ele>1550.5999755859</ele>
        <time>2021-08-10T07:32:33Z</time>
      </trkpt>
      <trkpt lat="44.70456" lon="5.85937">
        <ele>1551.1999511719</ele>
        <time>2021-08-10T07:32:49Z</time>
      </trkpt>
      <trkpt lat="44.70453" lon="5.85912">
        <ele>1552.1999511719</ele>
        <time>2021-08-10T07:33:09Z</time>
      </trkpt>
      <trkpt lat="44.70454" lon="5.85873">
        <ele>1553.8000488281</ele>
        <time>2021-08-10T07:33:35Z</time>
      </trkpt>
      <trkpt lat="44.70455" lon="5.85853">
        <ele>1556.4000244141</ele>
        <time>2021-08-10T07:33:56Z</time>
      </trkpt>
      <trkpt lat="44.70458" lon="5.85839">
        <ele>1559.4000244141</ele>
        <time>2021-08-10T07:34:13Z</time>
      </trkpt>
      <trkpt lat="44.70464" lon="5.85822">
        <ele>1562.5999755859</ele>
        <time>2021-08-10T07:34:33Z</time>
      </trkpt>
      <trkpt lat="44.70469" lon="5.858">
        <ele>1565.4000244141</ele>
        <time>2021-08-10T07:34:57Z</time>
      </trkpt>
      <trkpt lat="44.70466" lon="5.85777">
        <ele>1568.1999511719</ele>
        <time>2021-08-10T07:35:20Z</time>
      </trkpt>
      <trkpt lat="44.70465" lon="5.85763">
        <ele>1571.1999511719</ele>
        <time>2021-08-10T07:35:38Z</time>
      </trkpt>
      <trkpt lat="44.70461" lon="5.85748">
        <ele>1574.4000244141</ele>
        <time>2021-08-10T07:35:59Z</time>
      </trkpt>
      <trkpt lat="44.70462" lon="5.85725">
        <ele>1577.4000244141</ele>
        <time>2021-08-10T07:36:25Z</time>
      </trkpt>
      <trkpt lat="44.70462" lon="5.85709">
        <ele>1579.4000244141</ele>
        <time>2021-08-10T07:36:47Z</time>
      </trkpt>
      <trkpt lat="44.70465" lon="5.8568">
        <ele>1582.4000244141</ele>
        <time>2021-08-10T07:37:09Z</time>
      </trkpt>
      <trkpt lat="44.70469" lon="5.85661">
        <ele>1584</ele>
        <time>2021-08-10T07:37:29Z</time>
      </trkpt>
      <trkpt lat="44.70469" lon="5.85638">
        <ele>1586.8000488281</ele>
        <time>2021-08-10T07:37:50Z</time>
      </trkpt>
      <trkpt lat="44.70466" lon="5.85616">
        <ele>1589.8000488281</ele>
        <time>2021-08-10T07:38:11Z</time>
      </trkpt>
      <trkpt lat="44.70462" lon="5.85589">
        <ele>1592.4000244141</ele>
        <time>2021-08-10T07:38:34Z</time>
      </trkpt>
      <trkpt lat="44.70463" lon="5.85566">
        <ele>1593.4000244141</ele>
        <time>2021-08-10T07:38:51Z</time>
      </trkpt>
      <trkpt lat="44.70463" lon="5.85542">
        <ele>1594.8000488281</ele>
        <time>2021-08-10T07:39:10Z</time>
      </trkpt>
      <trkpt lat="44.70464" lon="5.85534">
        <ele>1595.5999755859</ele>
        <time>2021-08-10T07:39:16Z</time>
      </trkpt>
      <trkpt lat="44.70469" lon="5.85517">
        <ele>1597.4000244141</ele>
        <time>2021-08-10T07:39:32Z</time>
      </trkpt>
      <trkpt lat="44.70474" lon="5.85499">
        <ele>1600.1999511719</ele>
        <time>2021-08-10T07:39:52Z</time>
      </trkpt>
      <trkpt lat="44.70476" lon="5.85484">
        <ele>1602.8000488281</ele>
        <time>2021-08-10T07:40:15Z</time>
      </trkpt>
      <trkpt lat="44.70477" lon="5.85468">
        <ele>1606</ele>
        <time>2021-08-10T07:40:35Z</time>
      </trkpt>
      <trkpt lat="44.70478" lon="5.85452">
        <ele>1609</ele>
        <time>2021-08-10T07:40:57Z</time>
      </trkpt>
      <trkpt lat="44.7048" lon="5.85437">
        <ele>1612.1999511719</ele>
        <time>2021-08-10T07:41:16Z</time>
      </trkpt>
      <trkpt lat="44.70474" lon="5.85419">
        <ele>1614.5999755859</ele>
        <time>2021-08-10T07:41:39Z</time>
      </trkpt>
      <trkpt lat="44.70463" lon="5.85408">
        <ele>1617.8000488281</ele>
        <time>2021-08-10T07:42:01Z</time>
      </trkpt>
      <trkpt lat="44.70459" lon="5.85393">
        <ele>1621</ele>
        <time>2021-08-10T07:42:22Z</time>
      </trkpt>
      <trkpt lat="44.70454" lon="5.85379">
        <ele>1624</ele>
        <time>2021-08-10T07:42:41Z</time>
      </trkpt>
      <trkpt lat="44.70452" lon="5.85368">
        <ele>1627</ele>
        <time>2021-08-10T07:42:59Z</time>
      </trkpt>
      <trkpt lat="44.70449" lon="5.8536">
        <ele>1630.1999511719</ele>
        <time>2021-08-10T07:43:20Z</time>
      </trkpt>
      <trkpt lat="44.70445" lon="5.8535">
        <ele>1633.1999511719</ele>
        <time>2021-08-10T07:43:40Z</time>
      </trkpt>
      <trkpt lat="44.70444" lon="5.85341">
        <ele>1635.4000244141</ele>
        <time>2021-08-10T07:43:59Z</time>
      </trkpt>
      <trkpt lat="44.70443" lon="5.85332">
        <ele>1638.4000244141</ele>
        <time>2021-08-10T07:44:15Z</time>
      </trkpt>
      <trkpt lat="44.70437" lon="5.85319">
        <ele>1641.4000244141</ele>
        <time>2021-08-10T07:44:35Z</time>
      </trkpt>
      <trkpt lat="44.70429" lon="5.85306">
        <ele>1644.5999755859</ele>
        <time>2021-08-10T07:44:57Z</time>
      </trkpt>
      <trkpt lat="44.70423" lon="5.85293">
        <ele>1647.8000488281</ele>
        <time>2021-08-10T07:45:20Z</time>
      </trkpt>
      <trkpt lat="44.70418" lon="5.85283">
        <ele>1650.4000244141</ele>
        <time>2021-08-10T07:45:41Z</time>
      </trkpt>
      <trkpt lat="44.70408" lon="5.85269">
        <ele>1653</ele>
        <time>2021-08-10T07:46:02Z</time>
      </trkpt>
      <trkpt lat="44.70404" lon="5.85259">
        <ele>1656</ele>
        <time>2021-08-10T07:46:18Z</time>
      </trkpt>
      <trkpt lat="44.70398" lon="5.85243">
        <ele>1659</ele>
        <time>2021-08-10T07:46:39Z</time>
      </trkpt>
      <trkpt lat="44.70392" lon="5.85226">
        <ele>1661.5999755859</ele>
        <time>2021-08-10T07:47:00Z</time>
      </trkpt>
      <trkpt lat="44.70382" lon="5.85207">
        <ele>1664.4000244141</ele>
        <time>2021-08-10T07:47:23Z</time>
      </trkpt>
      <trkpt lat="44.70372" lon="5.8519">
        <ele>1667</ele>
        <time>2021-08-10T07:47:44Z</time>
      </trkpt>
      <trkpt lat="44.70365" lon="5.85182">
        <ele>1670</ele>
        <time>2021-08-10T07:48:01Z</time>
      </trkpt>
      <trkpt lat="44.70358" lon="5.85173">
        <ele>1673</ele>
        <time>2021-08-10T07:48:21Z</time>
      </trkpt>
      <trkpt lat="44.70352" lon="5.85162">
        <ele>1676</ele>
        <time>2021-08-10T07:48:39Z</time>
      </trkpt>
      <trkpt lat="44.70342" lon="5.85155">
        <ele>1678.8000488281</ele>
        <time>2021-08-10T07:49:01Z</time>
      </trkpt>
      <trkpt lat="44.7033" lon="5.85142">
        <ele>1682</ele>
        <time>2021-08-10T07:49:24Z</time>
      </trkpt>
      <trkpt lat="44.7032" lon="5.85135">
        <ele>1685.1999511719</ele>
        <time>2021-08-10T07:49:42Z</time>
      </trkpt>
      <trkpt lat="44.70309" lon="5.85124">
        <ele>1687.1999511719</ele>
        <time>2021-08-10T07:50:03Z</time>
      </trkpt>
      <trkpt lat="44.70301" lon="5.85118">
        <ele>1688</ele>
        <time>2021-08-10T07:50:15Z</time>
      </trkpt>
      <trkpt lat="44.70285" lon="5.85114">
        <ele>1690.4000244141</ele>
        <time>2021-08-10T07:50:36Z</time>
      </trkpt>
      <trkpt lat="44.70279" lon="5.85099">
        <ele>1693.4000244141</ele>
        <time>2021-08-10T07:50:57Z</time>
      </trkpt>
      <trkpt lat="44.70266" lon="5.85091">
        <ele>1696</ele>
        <time>2021-08-10T07:51:16Z</time>
      </trkpt>
      <trkpt lat="44.70256" lon="5.85083">
        <ele>1697.5999755859</ele>
        <time>2021-08-10T07:51:32Z</time>
      </trkpt>
      <trkpt lat="44.70243" lon="5.8507">
        <ele>1699.1999511719</ele>
        <time>2021-08-10T07:51:50Z</time>
      </trkpt>
      <trkpt lat="44.70237" lon="5.85069">
        <ele>1699.1999511719</ele>
        <time>2021-08-10T07:51:54Z</time>
      </trkpt>
      <trkpt lat="44.70224" lon="5.85062">
        <ele>1699</ele>
        <time>2021-08-10T07:52:09Z</time>
      </trkpt>
      <trkpt lat="44.70216" lon="5.85043">
        <ele>1699.1999511719</ele>
        <time>2021-08-10T07:52:25Z</time>
      </trkpt>
      <trkpt lat="44.70207" lon="5.85018">
        <ele>1699.1999511719</ele>
        <time>2021-08-10T07:52:45Z</time>
      </trkpt>
      <trkpt lat="44.70203" lon="5.84998">
        <ele>1700.1999511719</ele>
        <time>2021-08-10T07:53:03Z</time>
      </trkpt>
      <trkpt lat="44.70203" lon="5.84982">
        <ele>1703.1999511719</ele>
        <time>2021-08-10T07:53:25Z</time>
      </trkpt>
      <trkpt lat="44.70202" lon="5.84964">
        <ele>1704.5999755859</ele>
        <time>2021-08-10T07:53:55Z</time>
      </trkpt>
      <trkpt lat="44.70198" lon="5.84944">
        <ele>1707.8000488281</ele>
        <time>2021-08-10T07:54:17Z</time>
      </trkpt>
      <trkpt lat="44.70196" lon="5.84937">
        <ele>1709.1999511719</ele>
        <time>2021-08-10T07:54:45Z</time>
      </trkpt>
      <trkpt lat="44.70197" lon="5.84931">
        <ele>1709.1999511719</ele>
        <time>2021-08-10T07:55:10Z</time>
      </trkpt>
      <trkpt lat="44.70191" lon="5.84907">
        <ele>1708.1999511719</ele>
        <time>2021-08-10T07:55:26Z</time>
      </trkpt>
      <trkpt lat="44.70189" lon="5.84901">
        <ele>1708.1999511719</ele>
        <time>2021-08-10T07:55:30Z</time>
      </trkpt>
      <trkpt lat="44.70185" lon="5.84883">
        <ele>1708</ele>
        <time>2021-08-10T07:55:43Z</time>
      </trkpt>
      <trkpt lat="44.7018" lon="5.84865">
        <ele>1710.4000244141</ele>
        <time>2021-08-10T07:56:02Z</time>
      </trkpt>
      <trkpt lat="44.7018" lon="5.84851">
        <ele>1712.5999755859</ele>
        <time>2021-08-10T07:56:21Z</time>
      </trkpt>
      <trkpt lat="44.70185" lon="5.8484">
        <ele>1715</ele>
        <time>2021-08-10T07:56:39Z</time>
      </trkpt>
      <trkpt lat="44.702" lon="5.84826">
        <ele>1718</ele>
        <time>2021-08-10T07:57:04Z</time>
      </trkpt>
      <trkpt lat="44.70208" lon="5.84813">
        <ele>1721</ele>
        <time>2021-08-10T07:57:23Z</time>
      </trkpt>
      <trkpt lat="44.70215" lon="5.84802">
        <ele>1724</ele>
        <time>2021-08-10T07:57:41Z</time>
      </trkpt>
      <trkpt lat="44.7022" lon="5.84789">
        <ele>1727.1999511719</ele>
        <time>2021-08-10T07:58:00Z</time>
      </trkpt>
      <trkpt lat="44.70224" lon="5.84778">
        <ele>1730.4000244141</ele>
        <time>2021-08-10T07:58:20Z</time>
      </trkpt>
      <trkpt lat="44.70233" lon="5.84773">
        <ele>1733.4000244141</ele>
        <time>2021-08-10T07:58:37Z</time>
      </trkpt>
      <trkpt lat="44.70247" lon="5.84756">
        <ele>1736.5999755859</ele>
        <time>2021-08-10T07:59:03Z</time>
      </trkpt>
      <trkpt lat="44.70253" lon="5.84739">
        <ele>1739.1999511719</ele>
        <time>2021-08-10T07:59:26Z</time>
      </trkpt>
      <trkpt lat="44.70261" lon="5.84727">
        <ele>1741.4000244141</ele>
        <time>2021-08-10T07:59:49Z</time>
      </trkpt>
      <trkpt lat="44.70264" lon="5.84713">
        <ele>1743.4000244141</ele>
        <time>2021-08-10T08:00:07Z</time>
      </trkpt>
      <trkpt lat="44.70278" lon="5.84699">
        <ele>1746.1999511719</ele>
        <time>2021-08-10T08:00:29Z</time>
      </trkpt>
      <trkpt lat="44.70292" lon="5.84692">
        <ele>1747.5999755859</ele>
        <time>2021-08-10T08:00:46Z</time>
      </trkpt>
      <trkpt lat="44.70298" lon="5.84687">
        <ele>1747.5999755859</ele>
        <time>2021-08-10T08:00:53Z</time>
      </trkpt>
      <trkpt lat="44.70309" lon="5.84673">
        <ele>1749.5999755859</ele>
        <time>2021-08-10T08:01:17Z</time>
      </trkpt>
      <trkpt lat="44.70312" lon="5.8466">
        <ele>1752.5999755859</ele>
        <time>2021-08-10T08:01:33Z</time>
      </trkpt>
      <trkpt lat="44.70318" lon="5.84639">
        <ele>1755.5999755859</ele>
        <time>2021-08-10T08:01:55Z</time>
      </trkpt>
      <trkpt lat="44.70324" lon="5.84616">
        <ele>1758.5999755859</ele>
        <time>2021-08-10T08:02:20Z</time>
      </trkpt>
      <trkpt lat="44.70334" lon="5.84594">
        <ele>1761.4000244141</ele>
        <time>2021-08-10T08:02:45Z</time>
      </trkpt>
      <trkpt lat="44.70342" lon="5.84583">
        <ele>1764.5999755859</ele>
        <time>2021-08-10T08:03:06Z</time>
      </trkpt>
      <trkpt lat="44.70347" lon="5.84563">
        <ele>1766.8000488281</ele>
        <time>2021-08-10T08:03:27Z</time>
      </trkpt>
      <trkpt lat="44.70351" lon="5.84544">
        <ele>1770</ele>
        <time>2021-08-10T08:03:48Z</time>
      </trkpt>
      <trkpt lat="44.70357" lon="5.84523">
        <ele>1771.8000488281</ele>
        <time>2021-08-10T08:04:10Z</time>
      </trkpt>
      <trkpt lat="44.70365" lon="5.845">
        <ele>1774.1999511719</ele>
        <time>2021-08-10T08:04:32Z</time>
      </trkpt>
      <trkpt lat="44.70371" lon="5.84477">
        <ele>1776.4000244141</ele>
        <time>2021-08-10T08:04:56Z</time>
      </trkpt>
      <trkpt lat="44.70373" lon="5.8447">
        <ele>1779.4000244141</ele>
        <time>2021-08-10T08:05:13Z</time>
      </trkpt>
      <trkpt lat="44.70381" lon="5.84473">
        <ele>1780</ele>
        <time>2021-08-10T08:05:58Z</time>
      </trkpt>
      <trkpt lat="44.70377" lon="5.8447">
        <ele>1780.4000244141</ele>
        <time>2021-08-10T08:06:30Z</time>
      </trkpt>
      <trkpt lat="44.70378" lon="5.84474">
        <ele>1780.1999511719</ele>
        <time>2021-08-10T08:06:59Z</time>
      </trkpt>
      <trkpt lat="44.70378" lon="5.84454">
        <ele>1781.4000244141</ele>
        <time>2021-08-10T08:07:19Z</time>
      </trkpt>
      <trkpt lat="44.70384" lon="5.84427">
        <ele>1780.5999755859</ele>
        <time>2021-08-10T08:07:40Z</time>
      </trkpt>
      <trkpt lat="44.704" lon="5.84393">
        <ele>1779.5999755859</ele>
        <time>2021-08-10T08:08:08Z</time>
      </trkpt>
      <trkpt lat="44.70395" lon="5.84392">
        <ele>1779.8000488281</ele>
        <time>2021-08-10T08:08:37Z</time>
      </trkpt>
      <trkpt lat="44.70399" lon="5.84374">
        <ele>1779.1999511719</ele>
        <time>2021-08-10T08:09:15Z</time>
      </trkpt>
      <trkpt lat="44.70399" lon="5.84368">
        <ele>1779.4000244141</ele>
        <time>2021-08-10T08:09:19Z</time>
      </trkpt>
      <trkpt lat="44.70406" lon="5.84325">
        <ele>1779.1999511719</ele>
        <time>2021-08-10T08:09:48Z</time>
      </trkpt>
      <trkpt lat="44.70414" lon="5.84302">
        <ele>1779</ele>
        <time>2021-08-10T08:10:05Z</time>
      </trkpt>
      <trkpt lat="44.70433" lon="5.84291">
        <ele>1779.5999755859</ele>
        <time>2021-08-10T08:10:25Z</time>
      </trkpt>
      <trkpt lat="44.70449" lon="5.84287">
        <ele>1781.4000244141</ele>
        <time>2021-08-10T08:10:41Z</time>
      </trkpt>
      <trkpt lat="44.70462" lon="5.84282">
        <ele>1783.8000488281</ele>
        <time>2021-08-10T08:10:57Z</time>
      </trkpt>
      <trkpt lat="44.70472" lon="5.84273">
        <ele>1785.1999511719</ele>
        <time>2021-08-10T08:11:10Z</time>
      </trkpt>
      <trkpt lat="44.70489" lon="5.84253">
        <ele>1786.5999755859</ele>
        <time>2021-08-10T08:11:36Z</time>
      </trkpt>
      <trkpt lat="44.70498" lon="5.84244">
        <ele>1787.4000244141</ele>
        <time>2021-08-10T08:11:48Z</time>
      </trkpt>
      <trkpt lat="44.7051" lon="5.84236">
        <ele>1788</ele>
        <time>2021-08-10T08:12:04Z</time>
      </trkpt>
      <trkpt lat="44.70525" lon="5.84224">
        <ele>1791</ele>
        <time>2021-08-10T08:12:27Z</time>
      </trkpt>
      <trkpt lat="44.7054" lon="5.84212">
        <ele>1792.4000244141</ele>
        <time>2021-08-10T08:12:49Z</time>
      </trkpt>
      <trkpt lat="44.7055" lon="5.84206">
        <ele>1793.4000244141</ele>
        <time>2021-08-10T08:13:03Z</time>
      </trkpt>
      <trkpt lat="44.70555" lon="5.84201">
        <ele>1793.5999755859</ele>
        <time>2021-08-10T08:13:10Z</time>
      </trkpt>
      <trkpt lat="44.70567" lon="5.84192">
        <ele>1793.8000488281</ele>
        <time>2021-08-10T08:13:30Z</time>
      </trkpt>
      <trkpt lat="44.70579" lon="5.84187">
        <ele>1794.4000244141</ele>
        <time>2021-08-10T08:13:48Z</time>
      </trkpt>
      <trkpt lat="44.70584" lon="5.84185">
        <ele>1794.4000244141</ele>
        <time>2021-08-10T08:13:52Z</time>
      </trkpt>
      <trkpt lat="44.706" lon="5.8418">
        <ele>1794</ele>
        <time>2021-08-10T08:14:09Z</time>
      </trkpt>
      <trkpt lat="44.70611" lon="5.84177">
        <ele>1795</ele>
        <time>2021-08-10T08:14:26Z</time>
      </trkpt>
      <trkpt lat="44.70613" lon="5.84176">
        <ele>1795.8000488281</ele>
        <time>2021-08-10T08:14:48Z</time>
      </trkpt>
      <trkpt lat="44.70616" lon="5.84175">
        <ele>1795.8000488281</ele>
        <time>2021-08-10T08:15:24Z</time>
      </trkpt>
      <trkpt lat="44.70628" lon="5.84164">
        <ele>1795.4000244141</ele>
        <time>2021-08-10T08:15:40Z</time>
      </trkpt>
      <trkpt lat="44.70628" lon="5.84163">
        <ele>1795.4000244141</ele>
        <time>2021-08-10T08:15:41Z</time>
      </trkpt>
      <trkpt lat="44.70639" lon="5.84147">
        <ele>1795</ele>
        <time>2021-08-10T08:15:55Z</time>
      </trkpt>
      <trkpt lat="44.70651" lon="5.8414">
        <ele>1795.1999511719</ele>
        <time>2021-08-10T08:16:10Z</time>
      </trkpt>
      <trkpt lat="44.70668" lon="5.84133">
        <ele>1795.4000244141</ele>
        <time>2021-08-10T08:16:29Z</time>
      </trkpt>
      <trkpt lat="44.70673" lon="5.84133">
        <ele>1795.4000244141</ele>
        <time>2021-08-10T08:16:34Z</time>
      </trkpt>
      <trkpt lat="44.70687" lon="5.84131">
        <ele>1795.1999511719</ele>
        <time>2021-08-10T08:16:49Z</time>
      </trkpt>
      <trkpt lat="44.70694" lon="5.84128">
        <ele>1795.1999511719</ele>
        <time>2021-08-10T08:16:58Z</time>
      </trkpt>
      <trkpt lat="44.70703" lon="5.8412">
        <ele>1793.5999755859</ele>
        <time>2021-08-10T08:17:11Z</time>
      </trkpt>
      <trkpt lat="44.70714" lon="5.84116">
        <ele>1792.1999511719</ele>
        <time>2021-08-10T08:17:26Z</time>
      </trkpt>
      <trkpt lat="44.70719" lon="5.84113">
        <ele>1791</ele>
        <time>2021-08-10T08:17:52Z</time>
      </trkpt>
      <trkpt lat="44.70712" lon="5.84119">
        <ele>1791.8000488281</ele>
        <time>2021-08-10T08:18:22Z</time>
      </trkpt>
      <trkpt lat="44.70706" lon="5.84117">
        <ele>1792</ele>
        <time>2021-08-10T08:18:49Z</time>
      </trkpt>
      <trkpt lat="44.707" lon="5.84103">
        <ele>1792.1999511719</ele>
        <time>2021-08-10T08:19:10Z</time>
      </trkpt>
      <trkpt lat="44.70692" lon="5.84089">
        <ele>1790.5999755859</ele>
        <time>2021-08-10T08:19:24Z</time>
      </trkpt>
      <trkpt lat="44.70695" lon="5.84078">
        <ele>1788.1999511719</ele>
        <time>2021-08-10T08:19:43Z</time>
      </trkpt>
      <trkpt lat="44.7071" lon="5.84071">
        <ele>1785</ele>
        <time>2021-08-10T08:20:04Z</time>
      </trkpt>
      <trkpt lat="44.70721" lon="5.84069">
        <ele>1782.4000244141</ele>
        <time>2021-08-10T08:20:20Z</time>
      </trkpt>
      <trkpt lat="44.70728" lon="5.84063">
        <ele>1779.1999511719</ele>
        <time>2021-08-10T08:20:34Z</time>
      </trkpt>
      <trkpt lat="44.70728" lon="5.84047">
        <ele>1776.8000488281</ele>
        <time>2021-08-10T08:20:55Z</time>
      </trkpt>
      <trkpt lat="44.70735" lon="5.84047">
        <ele>1774.5999755859</ele>
        <time>2021-08-10T08:21:12Z</time>
      </trkpt>
      <trkpt lat="44.70739" lon="5.84042">
        <ele>1771.1999511719</ele>
        <time>2021-08-10T08:21:31Z</time>
      </trkpt>
      <trkpt lat="44.70744" lon="5.8402">
        <ele>1768.1999511719</ele>
        <time>2021-08-10T08:21:52Z</time>
      </trkpt>
      <trkpt lat="44.70739" lon="5.83996">
        <ele>1765.1999511719</ele>
        <time>2021-08-10T08:22:15Z</time>
      </trkpt>
      <trkpt lat="44.70738" lon="5.83973">
        <ele>1762</ele>
        <time>2021-08-10T08:22:37Z</time>
      </trkpt>
      <trkpt lat="44.70731" lon="5.83948">
        <ele>1759</ele>
        <time>2021-08-10T08:22:59Z</time>
      </trkpt>
      <trkpt lat="44.70726" lon="5.83918">
        <ele>1757.1999511719</ele>
        <time>2021-08-10T08:23:22Z</time>
      </trkpt>
      <trkpt lat="44.70729" lon="5.83901">
        <ele>1755.5999755859</ele>
        <time>2021-08-10T08:23:45Z</time>
      </trkpt>
      <trkpt lat="44.7073" lon="5.8388">
        <ele>1754.1999511719</ele>
        <time>2021-08-10T08:24:05Z</time>
      </trkpt>
      <trkpt lat="44.70741" lon="5.8386">
        <ele>1751.8000488281</ele>
        <time>2021-08-10T08:24:27Z</time>
      </trkpt>
      <trkpt lat="44.70747" lon="5.8385">
        <ele>1750.8000488281</ele>
        <time>2021-08-10T08:24:35Z</time>
      </trkpt>
      <trkpt lat="44.70751" lon="5.83831">
        <ele>1750</ele>
        <time>2021-08-10T08:24:48Z</time>
      </trkpt>
      <trkpt lat="44.70756" lon="5.83809">
        <ele>1748.8000488281</ele>
        <time>2021-08-10T08:25:08Z</time>
      </trkpt>
      <trkpt lat="44.70757" lon="5.83805">
        <ele>1748.5999755859</ele>
        <time>2021-08-10T08:25:11Z</time>
      </trkpt>
      <trkpt lat="44.70768" lon="5.83782">
        <ele>1748.1999511719</ele>
        <time>2021-08-10T08:25:29Z</time>
      </trkpt>
      <trkpt lat="44.70774" lon="5.83765">
        <ele>1748.1999511719</ele>
        <time>2021-08-10T08:25:46Z</time>
      </trkpt>
      <trkpt lat="44.70779" lon="5.8374">
        <ele>1749.4000244141</ele>
        <time>2021-08-10T08:26:08Z</time>
      </trkpt>
      <trkpt lat="44.70785" lon="5.83725">
        <ele>1750.5999755859</ele>
        <time>2021-08-10T08:26:27Z</time>
      </trkpt>
      <trkpt lat="44.70792" lon="5.83706">
        <ele>1752.5999755859</ele>
        <time>2021-08-10T08:26:49Z</time>
      </trkpt>
      <trkpt lat="44.70803" lon="5.83686">
        <ele>1754</ele>
        <time>2021-08-10T08:27:09Z</time>
      </trkpt>
      <trkpt lat="44.70818" lon="5.83668">
        <ele>1754.4000244141</ele>
        <time>2021-08-10T08:27:32Z</time>
      </trkpt>
      <trkpt lat="44.70834" lon="5.83637">
        <ele>1753.5999755859</ele>
        <time>2021-08-10T08:27:56Z</time>
      </trkpt>
      <trkpt lat="44.70846" lon="5.83609">
        <ele>1752.5999755859</ele>
        <time>2021-08-10T08:28:20Z</time>
      </trkpt>
      <trkpt lat="44.70863" lon="5.83584">
        <ele>1750.5999755859</ele>
        <time>2021-08-10T08:28:44Z</time>
      </trkpt>
      <trkpt lat="44.70866" lon="5.83566">
        <ele>1749.5999755859</ele>
        <time>2021-08-10T08:29:02Z</time>
      </trkpt>
      <trkpt lat="44.70881" lon="5.83533">
        <ele>1750</ele>
        <time>2021-08-10T08:29:27Z</time>
      </trkpt>
      <trkpt lat="44.70886" lon="5.8351">
        <ele>1750.4000244141</ele>
        <time>2021-08-10T08:29:44Z</time>
      </trkpt>
      <trkpt lat="44.70895" lon="5.83484">
        <ele>1750.8000488281</ele>
        <time>2021-08-10T08:30:07Z</time>
      </trkpt>
      <trkpt lat="44.70905" lon="5.83454">
        <ele>1751.1999511719</ele>
        <time>2021-08-10T08:30:32Z</time>
      </trkpt>
      <trkpt lat="44.70917" lon="5.83433">
        <ele>1752.4000244141</ele>
        <time>2021-08-10T08:30:55Z</time>
      </trkpt>
      <trkpt lat="44.70927" lon="5.83411">
        <ele>1754.8000488281</ele>
        <time>2021-08-10T08:31:17Z</time>
      </trkpt>
      <trkpt lat="44.70927" lon="5.83382">
        <ele>1756.1999511719</ele>
        <time>2021-08-10T08:31:42Z</time>
      </trkpt>
      <trkpt lat="44.70927" lon="5.83379">
        <ele>1756.1999511719</ele>
        <time>2021-08-10T08:31:44Z</time>
      </trkpt>
      <trkpt lat="44.70937" lon="5.8336">
        <ele>1757.1999511719</ele>
        <time>2021-08-10T08:32:03Z</time>
      </trkpt>
      <trkpt lat="44.7094" lon="5.83335">
        <ele>1758.1999511719</ele>
        <time>2021-08-10T08:32:22Z</time>
      </trkpt>
      <trkpt lat="44.70941" lon="5.8332">
        <ele>1758.1999511719</ele>
        <time>2021-08-10T08:32:38Z</time>
      </trkpt>
      <trkpt lat="44.70942" lon="5.83317">
        <ele>1758.1999511719</ele>
        <time>2021-08-10T08:32:40Z</time>
      </trkpt>
      <trkpt lat="44.70945" lon="5.83298">
        <ele>1759</ele>
        <time>2021-08-10T08:32:53Z</time>
      </trkpt>
      <trkpt lat="44.70946" lon="5.83287">
        <ele>1759.4000244141</ele>
        <time>2021-08-10T08:33:01Z</time>
      </trkpt>
      <trkpt lat="44.70949" lon="5.83268">
        <ele>1760</ele>
        <time>2021-08-10T08:33:15Z</time>
      </trkpt>
      <trkpt lat="44.70952" lon="5.83257">
        <ele>1760.5999755859</ele>
        <time>2021-08-10T08:33:24Z</time>
      </trkpt>
      <trkpt lat="44.70952" lon="5.83254">
        <ele>1760.8000488281</ele>
        <time>2021-08-10T08:33:27Z</time>
      </trkpt>
      <trkpt lat="44.70952" lon="5.83233">
        <ele>1761.8000488281</ele>
        <time>2021-08-10T08:33:42Z</time>
      </trkpt>
      <trkpt lat="44.70953" lon="5.83226">
        <ele>1762.1999511719</ele>
        <time>2021-08-10T08:33:48Z</time>
      </trkpt>
      <trkpt lat="44.70954" lon="5.83199">
        <ele>1763.1999511719</ele>
        <time>2021-08-10T08:34:07Z</time>
      </trkpt>
      <trkpt lat="44.70958" lon="5.83178">
        <ele>1764.1999511719</ele>
        <time>2021-08-10T08:34:25Z</time>
      </trkpt>
      <trkpt lat="44.70959" lon="5.83155">
        <ele>1765</ele>
        <time>2021-08-10T08:34:48Z</time>
      </trkpt>
      <trkpt lat="44.70959" lon="5.83129">
        <ele>1766.1999511719</ele>
        <time>2021-08-10T08:35:08Z</time>
      </trkpt>
      <trkpt lat="44.70958" lon="5.83098">
        <ele>1767.4000244141</ele>
        <time>2021-08-10T08:35:33Z</time>
      </trkpt>
      <trkpt lat="44.70961" lon="5.83071">
        <ele>1769.1999511719</ele>
        <time>2021-08-10T08:35:55Z</time>
      </trkpt>
      <trkpt lat="44.70964" lon="5.83058">
        <ele>1770</ele>
        <time>2021-08-10T08:36:07Z</time>
      </trkpt>
      <trkpt lat="44.70965" lon="5.83038">
        <ele>1770.8000488281</ele>
        <time>2021-08-10T08:36:23Z</time>
      </trkpt>
      <trkpt lat="44.70966" lon="5.8303">
        <ele>1771.4000244141</ele>
        <time>2021-08-10T08:36:30Z</time>
      </trkpt>
      <trkpt lat="44.70966" lon="5.83008">
        <ele>1772.1999511719</ele>
        <time>2021-08-10T08:36:46Z</time>
      </trkpt>
      <trkpt lat="44.70962" lon="5.82979">
        <ele>1773.8000488281</ele>
        <time>2021-08-10T08:37:10Z</time>
      </trkpt>
      <trkpt lat="44.70962" lon="5.82952">
        <ele>1775.1999511719</ele>
        <time>2021-08-10T08:37:35Z</time>
      </trkpt>
      <trkpt lat="44.70961" lon="5.82931">
        <ele>1777.8000488281</ele>
        <time>2021-08-10T08:37:58Z</time>
      </trkpt>
      <trkpt lat="44.7096" lon="5.82913">
        <ele>1781</ele>
        <time>2021-08-10T08:38:21Z</time>
      </trkpt>
      <trkpt lat="44.70958" lon="5.82891">
        <ele>1784</ele>
        <time>2021-08-10T08:38:45Z</time>
      </trkpt>
      <trkpt lat="44.70962" lon="5.82884">
        <ele>1785</ele>
        <time>2021-08-10T08:38:54Z</time>
      </trkpt>
      <trkpt lat="44.70969" lon="5.82854">
        <ele>1785.1999511719</ele>
        <time>2021-08-10T08:39:20Z</time>
      </trkpt>
      <trkpt lat="44.70967" lon="5.82834">
        <ele>1788.1999511719</ele>
        <time>2021-08-10T08:39:44Z</time>
      </trkpt>
      <trkpt lat="44.70961" lon="5.82818">
        <ele>1790.8000488281</ele>
        <time>2021-08-10T08:40:05Z</time>
      </trkpt>
      <trkpt lat="44.70958" lon="5.82812">
        <ele>1793.8000488281</ele>
        <time>2021-08-10T08:40:28Z</time>
      </trkpt>
      <trkpt lat="44.70951" lon="5.82791">
        <ele>1795.4000244141</ele>
        <time>2021-08-10T08:40:52Z</time>
      </trkpt>
      <trkpt lat="44.70954" lon="5.8277">
        <ele>1798.4000244141</ele>
        <time>2021-08-10T08:41:15Z</time>
      </trkpt>
      <trkpt lat="44.70959" lon="5.8275">
        <ele>1801.1999511719</ele>
        <time>2021-08-10T08:41:38Z</time>
      </trkpt>
      <trkpt lat="44.70963" lon="5.82736">
        <ele>1803.5999755859</ele>
        <time>2021-08-10T08:42:00Z</time>
      </trkpt>
      <trkpt lat="44.70956" lon="5.82731">
        <ele>1804.8000488281</ele>
        <time>2021-08-10T08:42:21Z</time>
      </trkpt>
      <trkpt lat="44.70945" lon="5.82727">
        <ele>1808</ele>
        <time>2021-08-10T08:42:42Z</time>
      </trkpt>
      <trkpt lat="44.70938" lon="5.82722">
        <ele>1810.1999511719</ele>
        <time>2021-08-10T08:43:01Z</time>
      </trkpt>
      <trkpt lat="44.70927" lon="5.8272">
        <ele>1813.1999511719</ele>
        <time>2021-08-10T08:43:27Z</time>
      </trkpt>
      <trkpt lat="44.7092" lon="5.82715">
        <ele>1816.1999511719</ele>
        <time>2021-08-10T08:43:46Z</time>
      </trkpt>
      <trkpt lat="44.70916" lon="5.82711">
        <ele>1819.4000244141</ele>
        <time>2021-08-10T08:44:02Z</time>
      </trkpt>
      <trkpt lat="44.70907" lon="5.82705">
        <ele>1822.4000244141</ele>
        <time>2021-08-10T08:44:26Z</time>
      </trkpt>
      <trkpt lat="44.709" lon="5.82693">
        <ele>1825.4000244141</ele>
        <time>2021-08-10T08:44:47Z</time>
      </trkpt>
      <trkpt lat="44.7089" lon="5.82686">
        <ele>1828</ele>
        <time>2021-08-10T08:45:09Z</time>
      </trkpt>
      <trkpt lat="44.70879" lon="5.82679">
        <ele>1831</ele>
        <time>2021-08-10T08:45:30Z</time>
      </trkpt>
      <trkpt lat="44.70878" lon="5.82653">
        <ele>1832.1999511719</ele>
        <time>2021-08-10T08:45:59Z</time>
      </trkpt>
      <trkpt lat="44.7087" lon="5.82634">
        <ele>1834</ele>
        <time>2021-08-10T08:46:25Z</time>
      </trkpt>
      <trkpt lat="44.70866" lon="5.82624">
        <ele>1836.5999755859</ele>
        <time>2021-08-10T08:46:50Z</time>
      </trkpt>
      <trkpt lat="44.70863" lon="5.82606">
        <ele>1839.8000488281</ele>
        <time>2021-08-10T08:47:14Z</time>
      </trkpt>
      <trkpt lat="44.70858" lon="5.82598">
        <ele>1842.8000488281</ele>
        <time>2021-08-10T08:47:36Z</time>
      </trkpt>
      <trkpt lat="44.70862" lon="5.82588">
        <ele>1845.8000488281</ele>
        <time>2021-08-10T08:47:56Z</time>
      </trkpt>
      <trkpt lat="44.70854" lon="5.82576">
        <ele>1848.8000488281</ele>
        <time>2021-08-10T08:48:16Z</time>
      </trkpt>
      <trkpt lat="44.70849" lon="5.82559">
        <ele>1851.8000488281</ele>
        <time>2021-08-10T08:48:34Z</time>
      </trkpt>
      <trkpt lat="44.70844" lon="5.8256">
        <ele>1852</ele>
        <time>2021-08-10T08:48:59Z</time>
      </trkpt>
      <trkpt lat="44.70841" lon="5.82548">
        <ele>1851.5999755859</ele>
        <time>2021-08-10T08:49:20Z</time>
      </trkpt>
      <trkpt lat="44.70839" lon="5.82523">
        <ele>1852.4000244141</ele>
        <time>2021-08-10T08:49:42Z</time>
      </trkpt>
      <trkpt lat="44.70832" lon="5.82503">
        <ele>1854</ele>
        <time>2021-08-10T08:50:03Z</time>
      </trkpt>
      <trkpt lat="44.70821" lon="5.82486">
        <ele>1857</ele>
        <time>2021-08-10T08:50:28Z</time>
      </trkpt>
      <trkpt lat="44.70813" lon="5.82464">
        <ele>1859</ele>
        <time>2021-08-10T08:50:46Z</time>
      </trkpt>
      <trkpt lat="44.70809" lon="5.82456">
        <ele>1859.5999755859</ele>
        <time>2021-08-10T08:51:00Z</time>
      </trkpt>
      <trkpt lat="44.70807" lon="5.82446">
        <ele>1859.8000488281</ele>
        <time>2021-08-10T08:51:14Z</time>
      </trkpt>
      <trkpt lat="44.7081" lon="5.82442">
        <ele>1859.8000488281</ele>
        <time>2021-08-10T08:51:16Z</time>
      </trkpt>
      <trkpt lat="44.70808" lon="5.82438">
        <ele>1860</ele>
        <time>2021-08-10T08:51:19Z</time>
      </trkpt>
      <trkpt lat="44.70795" lon="5.82423">
        <ele>1861.4000244141</ele>
        <time>2021-08-10T08:51:37Z</time>
      </trkpt>
      <trkpt lat="44.70789" lon="5.82413">
        <ele>1862.4000244141</ele>
        <time>2021-08-10T08:51:47Z</time>
      </trkpt>
      <trkpt lat="44.70788" lon="5.82408">
        <ele>1862.5999755859</ele>
        <time>2021-08-10T08:51:51Z</time>
      </trkpt>
      <trkpt lat="44.70778" lon="5.82394">
        <ele>1863.5999755859</ele>
        <time>2021-08-10T08:52:07Z</time>
      </trkpt>
      <trkpt lat="44.7077" lon="5.82375">
        <ele>1865.5999755859</ele>
        <time>2021-08-10T08:52:26Z</time>
      </trkpt>
      <trkpt lat="44.70764" lon="5.82361">
        <ele>1867.4000244141</ele>
        <time>2021-08-10T08:52:49Z</time>
      </trkpt>
      <trkpt lat="44.70762" lon="5.8234">
        <ele>1869.4000244141</ele>
        <time>2021-08-10T08:53:11Z</time>
      </trkpt>
      <trkpt lat="44.70753" lon="5.82317">
        <ele>1871</ele>
        <time>2021-08-10T08:53:38Z</time>
      </trkpt>
      <trkpt lat="44.70746" lon="5.82298">
        <ele>1874</ele>
        <time>2021-08-10T08:54:04Z</time>
      </trkpt>
      <trkpt lat="44.70744" lon="5.82292">
        <ele>1875.5999755859</ele>
        <time>2021-08-10T08:54:33Z</time>
      </trkpt>
      <trkpt lat="44.70748" lon="5.82276">
        <ele>1878.5999755859</ele>
        <time>2021-08-10T08:54:58Z</time>
      </trkpt>
      <trkpt lat="44.70751" lon="5.82265">
        <ele>1881.5999755859</ele>
        <time>2021-08-10T08:55:20Z</time>
      </trkpt>
      <trkpt lat="44.70748" lon="5.8225">
        <ele>1884.5999755859</ele>
        <time>2021-08-10T08:55:39Z</time>
      </trkpt>
      <trkpt lat="44.70742" lon="5.82234">
        <ele>1887.8000488281</ele>
        <time>2021-08-10T08:55:57Z</time>
      </trkpt>
      <trkpt lat="44.70741" lon="5.82232">
        <ele>1890.1999511719</ele>
        <time>2021-08-10T08:56:25Z</time>
      </trkpt>
      <trkpt lat="44.70728" lon="5.82217">
        <ele>1893.4000244141</ele>
        <time>2021-08-10T08:56:49Z</time>
      </trkpt>
      <trkpt lat="44.70722" lon="5.82205">
        <ele>1896</ele>
        <time>2021-08-10T08:57:12Z</time>
      </trkpt>
      <trkpt lat="44.7072" lon="5.82194">
        <ele>1899</ele>
        <time>2021-08-10T08:57:33Z</time>
      </trkpt>
      <trkpt lat="44.70716" lon="5.82192">
        <ele>1900.4000244141</ele>
        <time>2021-08-10T08:58:03Z</time>
      </trkpt>
      <trkpt lat="44.70711" lon="5.82181">
        <ele>1903.4000244141</ele>
        <time>2021-08-10T08:58:25Z</time>
      </trkpt>
      <trkpt lat="44.70699" lon="5.82174">
        <ele>1905.4000244141</ele>
        <time>2021-08-10T08:58:46Z</time>
      </trkpt>
      <trkpt lat="44.70688" lon="5.82159">
        <ele>1908.5999755859</ele>
        <time>2021-08-10T08:59:08Z</time>
      </trkpt>
      <trkpt lat="44.70687" lon="5.82137">
        <ele>1910.4000244141</ele>
        <time>2021-08-10T08:59:31Z</time>
      </trkpt>
      <trkpt lat="44.70683" lon="5.82113">
        <ele>1911</ele>
        <time>2021-08-10T08:59:51Z</time>
      </trkpt>
      <trkpt lat="44.70673" lon="5.82094">
        <ele>1912.8000488281</ele>
        <time>2021-08-10T09:00:12Z</time>
      </trkpt>
      <trkpt lat="44.7067" lon="5.82068">
        <ele>1915.1999511719</ele>
        <time>2021-08-10T09:00:38Z</time>
      </trkpt>
      <trkpt lat="44.70665" lon="5.82037">
        <ele>1918</ele>
        <time>2021-08-10T09:01:07Z</time>
      </trkpt>
      <trkpt lat="44.7066" lon="5.82008">
        <ele>1920.8000488281</ele>
        <time>2021-08-10T09:01:34Z</time>
      </trkpt>
      <trkpt lat="44.70661" lon="5.81989">
        <ele>1922.4000244141</ele>
        <time>2021-08-10T09:01:50Z</time>
      </trkpt>
      <trkpt lat="44.70668" lon="5.81979">
        <ele>1923.5999755859</ele>
        <time>2021-08-10T09:02:08Z</time>
      </trkpt>
      <trkpt lat="44.7068" lon="5.81976">
        <ele>1925.4000244141</ele>
        <time>2021-08-10T09:02:31Z</time>
      </trkpt>
      <trkpt lat="44.70676" lon="5.81957">
        <ele>1928.4000244141</ele>
        <time>2021-08-10T09:02:55Z</time>
      </trkpt>
      <trkpt lat="44.70667" lon="5.81938">
        <ele>1931.1999511719</ele>
        <time>2021-08-10T09:03:23Z</time>
      </trkpt>
      <trkpt lat="44.70662" lon="5.81924">
        <ele>1933.4000244141</ele>
        <time>2021-08-10T09:03:46Z</time>
      </trkpt>
      <trkpt lat="44.70652" lon="5.8191">
        <ele>1935.4000244141</ele>
        <time>2021-08-10T09:04:09Z</time>
      </trkpt>
      <trkpt lat="44.70644" lon="5.81896">
        <ele>1938.4000244141</ele>
        <time>2021-08-10T09:04:32Z</time>
      </trkpt>
      <trkpt lat="44.70637" lon="5.81884">
        <ele>1941.4000244141</ele>
        <time>2021-08-10T09:04:55Z</time>
      </trkpt>
      <trkpt lat="44.70637" lon="5.81875">
        <ele>1944.5999755859</ele>
        <time>2021-08-10T09:05:19Z</time>
      </trkpt>
      <trkpt lat="44.70645" lon="5.81871">
        <ele>1946.4000244141</ele>
        <time>2021-08-10T09:05:40Z</time>
      </trkpt>
      <trkpt lat="44.70646" lon="5.81867">
        <ele>1947</ele>
        <time>2021-08-10T09:05:46Z</time>
      </trkpt>
      <trkpt lat="44.70644" lon="5.81858">
        <ele>1950.1999511719</ele>
        <time>2021-08-10T09:06:09Z</time>
      </trkpt>
      <trkpt lat="44.70636" lon="5.81845">
        <ele>1953.1999511719</ele>
        <time>2021-08-10T09:06:33Z</time>
      </trkpt>
      <trkpt lat="44.70629" lon="5.81833">
        <ele>1956.1999511719</ele>
        <time>2021-08-10T09:06:54Z</time>
      </trkpt>
      <trkpt lat="44.7063" lon="5.81832">
        <ele>1958.5999755859</ele>
        <time>2021-08-10T09:07:23Z</time>
      </trkpt>
      <trkpt lat="44.70629" lon="5.81822">
        <ele>1959.4000244141</ele>
        <time>2021-08-10T09:07:46Z</time>
      </trkpt>
      <trkpt lat="44.70628" lon="5.81805">
        <ele>1962.5999755859</ele>
        <time>2021-08-10T09:08:09Z</time>
      </trkpt>
      <trkpt lat="44.70625" lon="5.81787">
        <ele>1965.5999755859</ele>
        <time>2021-08-10T09:08:31Z</time>
      </trkpt>
      <trkpt lat="44.70624" lon="5.81773">
        <ele>1968.5999755859</ele>
        <time>2021-08-10T09:08:53Z</time>
      </trkpt>
      <trkpt lat="44.70624" lon="5.81771">
        <ele>1971.4000244141</ele>
        <time>2021-08-10T09:09:23Z</time>
      </trkpt>
      <trkpt lat="44.70625" lon="5.81771">
        <ele>1971.4000244141</ele>
        <time>2021-08-10T09:09:29Z</time>
      </trkpt>
      <trkpt lat="44.70621" lon="5.81754">
        <ele>1972.5999755859</ele>
        <time>2021-08-10T09:09:58Z</time>
      </trkpt>
      <trkpt lat="44.70615" lon="5.81734">
        <ele>1975</ele>
        <time>2021-08-10T09:10:20Z</time>
      </trkpt>
      <trkpt lat="44.70611" lon="5.81714">
        <ele>1978</ele>
        <time>2021-08-10T09:10:45Z</time>
      </trkpt>
      <trkpt lat="44.70613" lon="5.81691">
        <ele>1980.5999755859</ele>
        <time>2021-08-10T09:11:11Z</time>
      </trkpt>
      <trkpt lat="44.70608" lon="5.81675">
        <ele>1983.5999755859</ele>
        <time>2021-08-10T09:11:36Z</time>
      </trkpt>
      <trkpt lat="44.706" lon="5.81657">
        <ele>1986.5999755859</ele>
        <time>2021-08-10T09:11:59Z</time>
      </trkpt>
      <trkpt lat="44.70599" lon="5.81645">
        <ele>1989.8000488281</ele>
        <time>2021-08-10T09:12:20Z</time>
      </trkpt>
      <trkpt lat="44.70599" lon="5.81635">
        <ele>1991</ele>
        <time>2021-08-10T09:12:47Z</time>
      </trkpt>
      <trkpt lat="44.70599" lon="5.8162">
        <ele>1994.4000244141</ele>
        <time>2021-08-10T09:13:07Z</time>
      </trkpt>
      <trkpt lat="44.70611" lon="5.81627">
        <ele>1996.1999511719</ele>
        <time>2021-08-10T09:13:26Z</time>
      </trkpt>
      <trkpt lat="44.70624" lon="5.8163">
        <ele>1998.5999755859</ele>
        <time>2021-08-10T09:13:52Z</time>
      </trkpt>
      <trkpt lat="44.70624" lon="5.8163">
        <ele>1999.8000488281</ele>
        <time>2021-08-10T09:14:22Z</time>
      </trkpt>
      <trkpt lat="44.70624" lon="5.81624">
        <ele>2000</ele>
        <time>2021-08-10T09:14:53Z</time>
      </trkpt>
      <trkpt lat="44.70621" lon="5.81601">
        <ele>2002.8000488281</ele>
        <time>2021-08-10T09:15:19Z</time>
      </trkpt>
      <trkpt lat="44.70619" lon="5.81596">
        <ele>2005.5999755859</ele>
        <time>2021-08-10T09:15:49Z</time>
      </trkpt>
      <trkpt lat="44.70619" lon="5.81583">
        <ele>2006</ele>
        <time>2021-08-10T09:16:10Z</time>
      </trkpt>
      <trkpt lat="44.70612" lon="5.8156">
        <ele>2008.4000244141</ele>
        <time>2021-08-10T09:16:34Z</time>
      </trkpt>
      <trkpt lat="44.70605" lon="5.81539">
        <ele>2011.4000244141</ele>
        <time>2021-08-10T09:16:58Z</time>
      </trkpt>
      <trkpt lat="44.7059" lon="5.81526">
        <ele>2014.4000244141</ele>
        <time>2021-08-10T09:17:22Z</time>
      </trkpt>
      <trkpt lat="44.70591" lon="5.81515">
        <ele>2017</ele>
        <time>2021-08-10T09:17:43Z</time>
      </trkpt>
      <trkpt lat="44.70593" lon="5.815">
        <ele>2019.8000488281</ele>
        <time>2021-08-10T09:18:04Z</time>
      </trkpt>
      <trkpt lat="44.70591" lon="5.81482">
        <ele>2022.4000244141</ele>
        <time>2021-08-10T09:18:29Z</time>
      </trkpt>
      <trkpt lat="44.70587" lon="5.8147">
        <ele>2024.8000488281</ele>
        <time>2021-08-10T09:18:51Z</time>
      </trkpt>
      <trkpt lat="44.70582" lon="5.81453">
        <ele>2027.8000488281</ele>
        <time>2021-08-10T09:19:14Z</time>
      </trkpt>
      <trkpt lat="44.70576" lon="5.81446">
        <ele>2029.5999755859</ele>
        <time>2021-08-10T09:19:42Z</time>
      </trkpt>
      <trkpt lat="44.70569" lon="5.81432">
        <ele>2032.8000488281</ele>
        <time>2021-08-10T09:20:08Z</time>
      </trkpt>
      <trkpt lat="44.70569" lon="5.81421">
        <ele>2036</ele>
        <time>2021-08-10T09:20:34Z</time>
      </trkpt>
      <trkpt lat="44.70569" lon="5.81411">
        <ele>2039</ele>
        <time>2021-08-10T09:20:52Z</time>
      </trkpt>
      <trkpt lat="44.70572" lon="5.8141">
        <ele>2039.4000244141</ele>
        <time>2021-08-10T09:20:55Z</time>
      </trkpt>
      <trkpt lat="44.70576" lon="5.81405">
        <ele>2041</ele>
        <time>2021-08-10T09:21:09Z</time>
      </trkpt>
      <trkpt lat="44.70569" lon="5.81388">
        <ele>2044.1999511719</ele>
        <time>2021-08-10T09:21:31Z</time>
      </trkpt>
      <trkpt lat="44.70561" lon="5.81374">
        <ele>2047.1999511719</ele>
        <time>2021-08-10T09:21:53Z</time>
      </trkpt>
      <trkpt lat="44.7056" lon="5.81362">
        <ele>2049.8000488281</ele>
        <time>2021-08-10T09:22:17Z</time>
      </trkpt>
      <trkpt lat="44.70565" lon="5.81352">
        <ele>2051.3999023438</ele>
        <time>2021-08-10T09:22:44Z</time>
      </trkpt>
      <trkpt lat="44.70558" lon="5.81334">
        <ele>2054.6000976562</ele>
        <time>2021-08-10T09:23:07Z</time>
      </trkpt>
      <trkpt lat="44.70558" lon="5.81313">
        <ele>2057.3999023438</ele>
        <time>2021-08-10T09:23:28Z</time>
      </trkpt>
      <trkpt lat="44.70559" lon="5.81305">
        <ele>2058.1999511719</ele>
        <time>2021-08-10T09:23:35Z</time>
      </trkpt>
      <trkpt lat="44.70566" lon="5.81288">
        <ele>2059.6000976562</ele>
        <time>2021-08-10T09:23:54Z</time>
      </trkpt>
      <trkpt lat="44.70563" lon="5.81271">
        <ele>2062</ele>
        <time>2021-08-10T09:24:13Z</time>
      </trkpt>
      <trkpt lat="44.70555" lon="5.81258">
        <ele>2064</ele>
        <time>2021-08-10T09:24:36Z</time>
      </trkpt>
      <trkpt lat="44.70552" lon="5.81251">
        <ele>2064.3999023438</ele>
        <time>2021-08-10T09:24:51Z</time>
      </trkpt>
      <trkpt lat="44.7055" lon="5.81245">
        <ele>2064.1999511719</ele>
        <time>2021-08-10T09:25:36Z</time>
      </trkpt>
      <trkpt lat="44.70544" lon="5.81238">
        <ele>2064.1999511719</ele>
        <time>2021-08-10T09:25:54Z</time>
      </trkpt>
      <trkpt lat="44.70542" lon="5.81225">
        <ele>2065.8000488281</ele>
        <time>2021-08-10T09:26:19Z</time>
      </trkpt>
      <trkpt lat="44.70538" lon="5.81226">
        <ele>2065.6000976562</ele>
        <time>2021-08-10T09:26:40Z</time>
      </trkpt>
      <trkpt lat="44.70537" lon="5.81221">
        <ele>2063.3999023438</ele>
        <time>2021-08-10T09:27:11Z</time>
      </trkpt>
      <trkpt lat="44.70537" lon="5.81213">
        <ele>2061.6000976562</ele>
        <time>2021-08-10T09:27:39Z</time>
      </trkpt>
      <trkpt lat="44.70535" lon="5.81209">
        <ele>2059.1999511719</ele>
        <time>2021-08-10T09:27:58Z</time>
      </trkpt>
      <trkpt lat="44.70539" lon="5.81198">
        <ele>2056.3999023438</ele>
        <time>2021-08-10T09:28:20Z</time>
      </trkpt>
      <trkpt lat="44.70536" lon="5.81198">
        <ele>2055.3999023438</ele>
        <time>2021-08-10T09:28:47Z</time>
      </trkpt>
      <trkpt lat="44.70534" lon="5.81193">
        <ele>2053.6000976562</ele>
        <time>2021-08-10T09:29:15Z</time>
      </trkpt>
      <trkpt lat="44.70536" lon="5.81179">
        <ele>2050.6000976562</ele>
        <time>2021-08-10T09:29:44Z</time>
      </trkpt>
      <trkpt lat="44.70536" lon="5.81163">
        <ele>2047.5999755859</ele>
        <time>2021-08-10T09:30:08Z</time>
      </trkpt>
      <trkpt lat="44.70544" lon="5.81162">
        <ele>2049.3999023438</ele>
        <time>2021-08-10T09:30:31Z</time>
      </trkpt>
      <trkpt lat="44.70543" lon="5.8118">
        <ele>2050</ele>
        <time>2021-08-10T09:31:06Z</time>
      </trkpt>
      <trkpt lat="44.7043" lon="5.81334">
        <ele>2051</ele>
        <time>2021-08-10T09:31:55Z</time>
      </trkpt>
      <trkpt lat="44.70451" lon="5.81296">
        <ele>2051</ele>
        <time>2021-08-10T09:32:15Z</time>
      </trkpt>
      <trkpt lat="44.70461" lon="5.81282">
        <ele>2051</ele>
        <time>2021-08-10T09:32:40Z</time>
      </trkpt>
      <trkpt lat="44.70482" lon="5.8126">
        <ele>2051</ele>
        <time>2021-08-10T09:33:15Z</time>
      </trkpt>
      <trkpt lat="44.7048" lon="5.81256">
        <ele>2050.8000488281</ele>
        <time>2021-08-10T09:33:33Z</time>
      </trkpt>
      <trkpt lat="44.70483" lon="5.81247">
        <ele>2050.8000488281</ele>
        <time>2021-08-10T09:34:02Z</time>
      </trkpt>
      <trkpt lat="44.70483" lon="5.81238">
        <ele>2050.8000488281</ele>
        <time>2021-08-10T09:34:39Z</time>
      </trkpt>
      <trkpt lat="44.70485" lon="5.81252">
        <ele>2050.8000488281</ele>
        <time>2021-08-10T09:35:01Z</time>
      </trkpt>
      <trkpt lat="44.70485" lon="5.8126">
        <ele>2050.8000488281</ele>
        <time>2021-08-10T09:35:29Z</time>
      </trkpt>
      <trkpt lat="44.70499" lon="5.8123">
        <ele>2050.6000976562</ele>
        <time>2021-08-10T09:35:58Z</time>
      </trkpt>
      <trkpt lat="44.70495" lon="5.81235">
        <ele>2050.8000488281</ele>
        <time>2021-08-10T09:36:44Z</time>
      </trkpt>
      <trkpt lat="44.70498" lon="5.81234">
        <ele>2050.8000488281</ele>
        <time>2021-08-10T09:37:25Z</time>
      </trkpt>
      <trkpt lat="44.70498" lon="5.81236">
        <ele>2050.8000488281</ele>
        <time>2021-08-10T09:37:41Z</time>
      </trkpt>
      <trkpt lat="44.70506" lon="5.81213">
        <ele>2050.3999023438</ele>
        <time>2021-08-10T09:38:17Z</time>
      </trkpt>
      <trkpt lat="44.70522" lon="5.81173">
        <ele>2047.5999755859</ele>
        <time>2021-08-10T09:38:55Z</time>
      </trkpt>
      <trkpt lat="44.70529" lon="5.81162">
        <ele>2046.1999511719</ele>
        <time>2021-08-10T09:39:37Z</time>
      </trkpt>
      <trkpt lat="44.70525" lon="5.8117">
        <ele>2044.5999755859</ele>
        <time>2021-08-10T09:39:57Z</time>
      </trkpt>
      <trkpt lat="44.70525" lon="5.81164">
        <ele>2043.5999755859</ele>
        <time>2021-08-10T09:40:30Z</time>
      </trkpt>
      <trkpt lat="44.70525" lon="5.81156">
        <ele>2041.5999755859</ele>
        <time>2021-08-10T09:40:52Z</time>
      </trkpt>
      <trkpt lat="44.70525" lon="5.81159">
        <ele>2039.5999755859</ele>
        <time>2021-08-10T09:41:15Z</time>
      </trkpt>
      <trkpt lat="44.70526" lon="5.81153">
        <ele>2037.4000244141</ele>
        <time>2021-08-10T09:41:45Z</time>
      </trkpt>
      <trkpt lat="44.70524" lon="5.81145">
        <ele>2035.8000488281</ele>
        <time>2021-08-10T09:42:13Z</time>
      </trkpt>
      <trkpt lat="44.70523" lon="5.81144">
        <ele>2033</ele>
        <time>2021-08-10T09:42:36Z</time>
      </trkpt>
      <trkpt lat="44.70522" lon="5.81143">
        <ele>2031.8000488281</ele>
        <time>2021-08-10T09:42:55Z</time>
      </trkpt>
      <trkpt lat="44.7052" lon="5.81132">
        <ele>2029.1999511719</ele>
        <time>2021-08-10T09:43:18Z</time>
      </trkpt>
      <trkpt lat="44.70516" lon="5.8112">
        <ele>2026.4000244141</ele>
        <time>2021-08-10T09:43:41Z</time>
      </trkpt>
      <trkpt lat="44.70516" lon="5.81108">
        <ele>2023.4000244141</ele>
        <time>2021-08-10T09:44:06Z</time>
      </trkpt>
      <trkpt lat="44.70514" lon="5.81096">
        <ele>2020.1999511719</ele>
        <time>2021-08-10T09:44:26Z</time>
      </trkpt>
      <trkpt lat="44.70511" lon="5.81088">
        <ele>2017.1999511719</ele>
        <time>2021-08-10T09:44:46Z</time>
      </trkpt>
      <trkpt lat="44.7051" lon="5.8108">
        <ele>2014.1999511719</ele>
        <time>2021-08-10T09:45:11Z</time>
      </trkpt>
      <trkpt lat="44.70506" lon="5.81075">
        <ele>2011.4000244141</ele>
        <time>2021-08-10T09:45:41Z</time>
      </trkpt>
      <trkpt lat="44.70503" lon="5.81085">
        <ele>2008.5999755859</ele>
        <time>2021-08-10T09:46:10Z</time>
      </trkpt>
      <trkpt lat="44.70504" lon="5.81088">
        <ele>2006.8000488281</ele>
        <time>2021-08-10T09:46:36Z</time>
      </trkpt>
      <trkpt lat="44.70493" lon="5.81087">
        <ele>2004.5999755859</ele>
        <time>2021-08-10T09:47:00Z</time>
      </trkpt>
      <trkpt lat="44.70486" lon="5.81076">
        <ele>2001.5999755859</ele>
        <time>2021-08-10T09:47:25Z</time>
      </trkpt>
      <trkpt lat="44.70487" lon="5.81074">
        <ele>1998.8000488281</ele>
        <time>2021-08-10T09:47:51Z</time>
      </trkpt>
      <trkpt lat="44.70484" lon="5.81068">
        <ele>1996.1999511719</ele>
        <time>2021-08-10T09:48:18Z</time>
      </trkpt>
      <trkpt lat="44.70481" lon="5.81059">
        <ele>1994</ele>
        <time>2021-08-10T09:48:45Z</time>
      </trkpt>
      <trkpt lat="44.70475" lon="5.81062">
        <ele>1991</ele>
        <time>2021-08-10T09:49:09Z</time>
      </trkpt>
      <trkpt lat="44.70471" lon="5.81057">
        <ele>1988</ele>
        <time>2021-08-10T09:49:35Z</time>
      </trkpt>
      <trkpt lat="44.70464" lon="5.81051">
        <ele>1985.4000244141</ele>
        <time>2021-08-10T09:50:00Z</time>
      </trkpt>
      <trkpt lat="44.70465" lon="5.81051">
        <ele>1982.5999755859</ele>
        <time>2021-08-10T09:50:32Z</time>
      </trkpt>
      <trkpt lat="44.70458" lon="5.81043">
        <ele>1980</ele>
        <time>2021-08-10T09:50:55Z</time>
      </trkpt>
      <trkpt lat="44.70452" lon="5.81043">
        <ele>1977.1999511719</ele>
        <time>2021-08-10T09:51:19Z</time>
      </trkpt>
      <trkpt lat="44.7045" lon="5.81032">
        <ele>1976.1999511719</ele>
        <time>2021-08-10T09:51:40Z</time>
      </trkpt>
      <trkpt lat="44.70445" lon="5.81028">
        <ele>1973.1999511719</ele>
        <time>2021-08-10T09:51:58Z</time>
      </trkpt>
      <trkpt lat="44.70438" lon="5.81023">
        <ele>1970.1999511719</ele>
        <time>2021-08-10T09:52:21Z</time>
      </trkpt>
      <trkpt lat="44.70434" lon="5.81013">
        <ele>1967.1999511719</ele>
        <time>2021-08-10T09:52:39Z</time>
      </trkpt>
      <trkpt lat="44.70431" lon="5.80998">
        <ele>1964.4000244141</ele>
        <time>2021-08-10T09:53:00Z</time>
      </trkpt>
      <trkpt lat="44.70426" lon="5.81">
        <ele>1961.4000244141</ele>
        <time>2021-08-10T09:53:25Z</time>
      </trkpt>
      <trkpt lat="44.70419" lon="5.81">
        <ele>1958.4000244141</ele>
        <time>2021-08-10T09:53:46Z</time>
      </trkpt>
      <trkpt lat="44.70412" lon="5.80996">
        <ele>1955.1999511719</ele>
        <time>2021-08-10T09:54:06Z</time>
      </trkpt>
      <trkpt lat="44.70408" lon="5.80987">
        <ele>1952.1999511719</ele>
        <time>2021-08-10T09:54:29Z</time>
      </trkpt>
      <trkpt lat="44.70401" lon="5.80977">
        <ele>1950.4000244141</ele>
        <time>2021-08-10T09:54:50Z</time>
      </trkpt>
      <trkpt lat="44.70399" lon="5.80968">
        <ele>1947.4000244141</ele>
        <time>2021-08-10T09:55:09Z</time>
      </trkpt>
      <trkpt lat="44.70399" lon="5.80956">
        <ele>1944.8000488281</ele>
        <time>2021-08-10T09:55:27Z</time>
      </trkpt>
      <trkpt lat="44.70395" lon="5.80942">
        <ele>1941.8000488281</ele>
        <time>2021-08-10T09:55:47Z</time>
      </trkpt>
      <trkpt lat="44.70387" lon="5.80929">
        <ele>1938.8000488281</ele>
        <time>2021-08-10T09:56:07Z</time>
      </trkpt>
      <trkpt lat="44.70383" lon="5.80924">
        <ele>1937</ele>
        <time>2021-08-10T09:56:35Z</time>
      </trkpt>
      <trkpt lat="44.70383" lon="5.80924">
        <ele>1937</ele>
        <time>2021-08-10T09:57:23Z</time>
      </trkpt>
      <trkpt lat="44.70379" lon="5.80915">
        <ele>1935.5999755859</ele>
        <time>2021-08-10T09:57:41Z</time>
      </trkpt>
      <trkpt lat="44.70377" lon="5.80901">
        <ele>1934</ele>
        <time>2021-08-10T09:57:55Z</time>
      </trkpt>
      <trkpt lat="44.70374" lon="5.80887">
        <ele>1932.4000244141</ele>
        <time>2021-08-10T09:58:11Z</time>
      </trkpt>
      <trkpt lat="44.70367" lon="5.80876">
        <ele>1931</ele>
        <time>2021-08-10T09:58:26Z</time>
      </trkpt>
      <trkpt lat="44.70362" lon="5.80872">
        <ele>1930.4000244141</ele>
        <time>2021-08-10T09:58:54Z</time>
      </trkpt>
      <trkpt lat="44.70355" lon="5.80886">
        <ele>1928</ele>
        <time>2021-08-10T09:59:14Z</time>
      </trkpt>
      <trkpt lat="44.70339" lon="5.8089">
        <ele>1926.1999511719</ele>
        <time>2021-08-10T09:59:35Z</time>
      </trkpt>
      <trkpt lat="44.70334" lon="5.80887">
        <ele>1925.4000244141</ele>
        <time>2021-08-10T09:59:52Z</time>
      </trkpt>
      <trkpt lat="44.70321" lon="5.80886">
        <ele>1924.8000488281</ele>
        <time>2021-08-10T10:00:13Z</time>
      </trkpt>
      <trkpt lat="44.7031" lon="5.80881">
        <ele>1924.5999755859</ele>
        <time>2021-08-10T10:00:29Z</time>
      </trkpt>
      <trkpt lat="44.70298" lon="5.80883">
        <ele>1925.5999755859</ele>
        <time>2021-08-10T10:00:45Z</time>
      </trkpt>
      <trkpt lat="44.70282" lon="5.8088">
        <ele>1928</ele>
        <time>2021-08-10T10:01:11Z</time>
      </trkpt>
      <trkpt lat="44.70273" lon="5.80872">
        <ele>1927.4000244141</ele>
        <time>2021-08-10T10:01:33Z</time>
      </trkpt>
      <trkpt lat="44.70266" lon="5.80873">
        <ele>1926</ele>
        <time>2021-08-10T10:01:55Z</time>
      </trkpt>
      <trkpt lat="44.70262" lon="5.80868">
        <ele>1925.8000488281</ele>
        <time>2021-08-10T10:02:58Z</time>
      </trkpt>
      <trkpt lat="44.70263" lon="5.80872">
        <ele>1925.5999755859</ele>
        <time>2021-08-10T10:03:29Z</time>
      </trkpt>
      <trkpt lat="44.70261" lon="5.80871">
        <ele>1925.1999511719</ele>
        <time>2021-08-10T10:03:55Z</time>
      </trkpt>
      <trkpt lat="44.7026" lon="5.80864">
        <ele>1925.8000488281</ele>
        <time>2021-08-10T10:05:48Z</time>
      </trkpt>
      <trkpt lat="44.70261" lon="5.80853">
        <ele>1924</ele>
        <time>2021-08-10T10:06:11Z</time>
      </trkpt>
      <trkpt lat="44.70257" lon="5.8084">
        <ele>1920.8000488281</ele>
        <time>2021-08-10T10:06:30Z</time>
      </trkpt>
      <trkpt lat="44.70248" lon="5.80831">
        <ele>1918</ele>
        <time>2021-08-10T10:06:48Z</time>
      </trkpt>
      <trkpt lat="44.70237" lon="5.80816">
        <ele>1914.8000488281</ele>
        <time>2021-08-10T10:07:04Z</time>
      </trkpt>
      <trkpt lat="44.70225" lon="5.80813">
        <ele>1912.5999755859</ele>
        <time>2021-08-10T10:07:23Z</time>
      </trkpt>
      <trkpt lat="44.70218" lon="5.80818">
        <ele>1911.8000488281</ele>
        <time>2021-08-10T10:07:38Z</time>
      </trkpt>
      <trkpt lat="44.70212" lon="5.80823">
        <ele>1910.4000244141</ele>
        <time>2021-08-10T10:08:01Z</time>
      </trkpt>
      <trkpt lat="44.70204" lon="5.80831">
        <ele>1909.5999755859</ele>
        <time>2021-08-10T10:08:13Z</time>
      </trkpt>
      <trkpt lat="44.70191" lon="5.8084">
        <ele>1909.4000244141</ele>
        <time>2021-08-10T10:08:27Z</time>
      </trkpt>
      <trkpt lat="44.70175" lon="5.80854">
        <ele>1908.4000244141</ele>
        <time>2021-08-10T10:08:51Z</time>
      </trkpt>
      <trkpt lat="44.70172" lon="5.80856">
        <ele>1907.8000488281</ele>
        <time>2021-08-10T10:09:34Z</time>
      </trkpt>
      <trkpt lat="44.70164" lon="5.80861">
        <ele>1907</ele>
        <time>2021-08-10T10:10:02Z</time>
      </trkpt>
      <trkpt lat="44.70162" lon="5.80856">
        <ele>1906.4000244141</ele>
        <time>2021-08-10T10:10:32Z</time>
      </trkpt>
      <trkpt lat="44.70161" lon="5.80855">
        <ele>1906.4000244141</ele>
        <time>2021-08-10T10:10:50Z</time>
      </trkpt>
      <trkpt lat="44.70154" lon="5.80849">
        <ele>1906.4000244141</ele>
        <time>2021-08-10T10:11:03Z</time>
      </trkpt>
      <trkpt lat="44.70147" lon="5.80839">
        <ele>1905.1999511719</ele>
        <time>2021-08-10T10:11:26Z</time>
      </trkpt>
      <trkpt lat="44.70146" lon="5.8083">
        <ele>1905.1999511719</ele>
        <time>2021-08-10T10:12:10Z</time>
      </trkpt>
      <trkpt lat="44.70149" lon="5.80833">
        <ele>1905.1999511719</ele>
        <time>2021-08-10T10:12:17Z</time>
      </trkpt>
      <trkpt lat="44.70144" lon="5.80838">
        <ele>1905.5999755859</ele>
        <time>2021-08-10T10:12:30Z</time>
      </trkpt>
      <trkpt lat="44.7015" lon="5.80839">
        <ele>1904</ele>
        <time>2021-08-10T10:12:48Z</time>
      </trkpt>
      <trkpt lat="44.7015" lon="5.8083">
        <ele>1903.4000244141</ele>
        <time>2021-08-10T10:13:24Z</time>
      </trkpt>
      <trkpt lat="44.70147" lon="5.80841">
        <ele>1903.8000488281</ele>
        <time>2021-08-10T10:13:52Z</time>
      </trkpt>
      <trkpt lat="44.70147" lon="5.8085">
        <ele>1907</ele>
        <time>2021-08-10T10:14:12Z</time>
      </trkpt>
      <trkpt lat="44.70148" lon="5.80852">
        <ele>1908.8000488281</ele>
        <time>2021-08-10T10:14:32Z</time>
      </trkpt>
      <trkpt lat="44.70142" lon="5.80848">
        <ele>1909</ele>
        <time>2021-08-10T10:14:51Z</time>
      </trkpt>
      <trkpt lat="44.70139" lon="5.8085">
        <ele>1909.1999511719</ele>
        <time>2021-08-10T10:15:16Z</time>
      </trkpt>
      <trkpt lat="44.70133" lon="5.80853">
        <ele>1910.1999511719</ele>
        <time>2021-08-10T10:15:33Z</time>
      </trkpt>
      <trkpt lat="44.70132" lon="5.80856">
        <ele>1911.5999755859</ele>
        <time>2021-08-10T10:15:53Z</time>
      </trkpt>
      <trkpt lat="44.70134" lon="5.80859">
        <ele>1912.5999755859</ele>
        <time>2021-08-10T10:16:26Z</time>
      </trkpt>
      <trkpt lat="44.7013" lon="5.80858">
        <ele>1912.4000244141</ele>
        <time>2021-08-10T10:16:43Z</time>
      </trkpt>
      <trkpt lat="44.70131" lon="5.80853">
        <ele>1912.8000488281</ele>
        <time>2021-08-10T10:17:05Z</time>
      </trkpt>
      <trkpt lat="44.70131" lon="5.80847">
        <ele>1911.8000488281</ele>
        <time>2021-08-10T10:17:27Z</time>
      </trkpt>
      <trkpt lat="44.70129" lon="5.80841">
        <ele>1912.4000244141</ele>
        <time>2021-08-10T10:17:46Z</time>
      </trkpt>
      <trkpt lat="44.70126" lon="5.80839">
        <ele>1913.1999511719</ele>
        <time>2021-08-10T10:18:25Z</time>
      </trkpt>
      <trkpt lat="44.7013" lon="5.80837">
        <ele>1914.1999511719</ele>
        <time>2021-08-10T10:18:46Z</time>
      </trkpt>
      <trkpt lat="44.70128" lon="5.80849">
        <ele>1913.5999755859</ele>
        <time>2021-08-10T10:19:18Z</time>
      </trkpt>
      <trkpt lat="44.70133" lon="5.8086">
        <ele>1913</ele>
        <time>2021-08-10T10:19:37Z</time>
      </trkpt>
      <trkpt lat="44.70138" lon="5.80866">
        <ele>1912.8000488281</ele>
        <time>2021-08-10T10:19:51Z</time>
      </trkpt>
      <trkpt lat="44.70142" lon="5.80861">
        <ele>1912.1999511719</ele>
        <time>2021-08-10T10:20:16Z</time>
      </trkpt>
      <trkpt lat="44.70147" lon="5.80864">
        <ele>1911.1999511719</ele>
        <time>2021-08-10T10:20:43Z</time>
      </trkpt>
      <trkpt lat="44.70146" lon="5.80862">
        <ele>1911.1999511719</ele>
        <time>2021-08-10T10:21:36Z</time>
      </trkpt>
      <trkpt lat="44.70148" lon="5.80857">
        <ele>1911.1999511719</ele>
        <time>2021-08-10T10:22:20Z</time>
      </trkpt>
      <trkpt lat="44.70149" lon="5.80857">
        <ele>1911.1999511719</ele>
        <time>2021-08-10T10:22:24Z</time>
      </trkpt>
      <trkpt lat="44.70164" lon="5.80855">
        <ele>1911.4000244141</ele>
        <time>2021-08-10T10:22:44Z</time>
      </trkpt>
      <trkpt lat="44.70166" lon="5.80857">
        <ele>1911.4000244141</ele>
        <time>2021-08-10T10:22:48Z</time>
      </trkpt>
      <trkpt lat="44.70156" lon="5.8086">
        <ele>1911.4000244141</ele>
        <time>2021-08-10T10:23:10Z</time>
      </trkpt>
      <trkpt lat="44.70136" lon="5.80863">
        <ele>1911.8000488281</ele>
        <time>2021-08-10T10:23:41Z</time>
      </trkpt>
      <trkpt lat="44.70124" lon="5.80861">
        <ele>1913.5999755859</ele>
        <time>2021-08-10T10:23:59Z</time>
      </trkpt>
      <trkpt lat="44.7012" lon="5.80854">
        <ele>1914</ele>
        <time>2021-08-10T10:24:05Z</time>
      </trkpt>
      <trkpt lat="44.70119" lon="5.80853">
        <ele>1915</ele>
        <time>2021-08-10T10:24:23Z</time>
      </trkpt>
      <trkpt lat="44.70135" lon="5.80864">
        <ele>1914</ele>
        <time>2021-08-10T10:24:45Z</time>
      </trkpt>
      <trkpt lat="44.7014" lon="5.80861">
        <ele>1911.8000488281</ele>
        <time>2021-08-10T10:25:08Z</time>
      </trkpt>
      <trkpt lat="44.70142" lon="5.8086">
        <ele>1910.8000488281</ele>
        <time>2021-08-10T10:27:29Z</time>
      </trkpt>
      <trkpt lat="44.70143" lon="5.8086">
        <ele>1910.5999755859</ele>
        <time>2021-08-10T10:28:26Z</time>
      </trkpt>
      <trkpt lat="44.70143" lon="5.8086">
        <ele>1910</ele>
        <time>2021-08-10T10:29:47Z</time>
      </trkpt>
      <trkpt lat="44.70142" lon="5.80861">
        <ele>1910.5999755859</ele>
        <time>2021-08-10T10:34:05Z</time>
      </trkpt>
      <trkpt lat="44.70142" lon="5.80861">
        <ele>1911</ele>
        <time>2021-08-10T10:35:57Z</time>
      </trkpt>
      <trkpt lat="44.70142" lon="5.8086">
        <ele>1910.1999511719</ele>
        <time>2021-08-10T10:37:55Z</time>
      </trkpt>
      <trkpt lat="44.70143" lon="5.8086">
        <ele>1910.1999511719</ele>
        <time>2021-08-10T10:40:08Z</time>
      </trkpt>
      <trkpt lat="44.70143" lon="5.8086">
        <ele>1909.4000244141</ele>
        <time>2021-08-10T10:40:54Z</time>
      </trkpt>
      <trkpt lat="44.70142" lon="5.80861">
        <ele>1910.1999511719</ele>
        <time>2021-08-10T10:41:52Z</time>
      </trkpt>
      <trkpt lat="44.70142" lon="5.8086">
        <ele>1909.8000488281</ele>
        <time>2021-08-10T10:43:06Z</time>
      </trkpt>
      <trkpt lat="44.70143" lon="5.80858">
        <ele>1909.5999755859</ele>
        <time>2021-08-10T10:45:03Z</time>
      </trkpt>
      <trkpt lat="44.70142" lon="5.8086">
        <ele>1910.1999511719</ele>
        <time>2021-08-10T10:46:43Z</time>
      </trkpt>
      <trkpt lat="44.70142" lon="5.8086">
        <ele>1910.1999511719</ele>
        <time>2021-08-10T10:46:47Z</time>
      </trkpt>
      <trkpt lat="44.70142" lon="5.80861">
        <ele>1910.1999511719</ele>
        <time>2021-08-10T10:46:52Z</time>
      </trkpt>
      <trkpt lat="44.70142" lon="5.80863">
        <ele>1909.8000488281</ele>
        <time>2021-08-10T10:47:35Z</time>
      </trkpt>
      <trkpt lat="44.70143" lon="5.80863">
        <ele>1909.5999755859</ele>
        <time>2021-08-10T10:48:10Z</time>
      </trkpt>
      <trkpt lat="44.70142" lon="5.80861">
        <ele>1910.5999755859</ele>
        <time>2021-08-10T10:48:56Z</time>
      </trkpt>
      <trkpt lat="44.70142" lon="5.8086">
        <ele>1909.1999511719</ele>
        <time>2021-08-10T10:52:09Z</time>
      </trkpt>
      <trkpt lat="44.70142" lon="5.80861">
        <ele>1908.8000488281</ele>
        <time>2021-08-10T10:54:06Z</time>
      </trkpt>
      <trkpt lat="44.70142" lon="5.8086">
        <ele>1908.5999755859</ele>
        <time>2021-08-10T10:55:00Z</time>
      </trkpt>
      <trkpt lat="44.70143" lon="5.80858">
        <ele>1909.1999511719</ele>
        <time>2021-08-10T10:56:36Z</time>
      </trkpt>
      <trkpt lat="44.70142" lon="5.80859">
        <ele>1909.1999511719</ele>
        <time>2021-08-10T10:57:01Z</time>
      </trkpt>
      <trkpt lat="44.70142" lon="5.80859">
        <ele>1909.4000244141</ele>
        <time>2021-08-10T10:57:55Z</time>
      </trkpt>
      <trkpt lat="44.70143" lon="5.80859">
        <ele>1908.8000488281</ele>
        <time>2021-08-10T10:59:07Z</time>
      </trkpt>
      <trkpt lat="44.70144" lon="5.80859">
        <ele>1908.5999755859</ele>
        <time>2021-08-10T11:00:00Z</time>
      </trkpt>
      <trkpt lat="44.70143" lon="5.80859">
        <ele>1908.4000244141</ele>
        <time>2021-08-10T11:01:03Z</time>
      </trkpt>
      <trkpt lat="44.70144" lon="5.80859">
        <ele>1908</ele>
        <time>2021-08-10T11:01:53Z</time>
      </trkpt>
      <trkpt lat="44.70144" lon="5.80859">
        <ele>1907.5999755859</ele>
        <time>2021-08-10T11:02:36Z</time>
      </trkpt>
      <trkpt lat="44.70144" lon="5.8086">
        <ele>1907.8000488281</ele>
        <time>2021-08-10T11:03:18Z</time>
      </trkpt>
      <trkpt lat="44.70143" lon="5.80861">
        <ele>1907.8000488281</ele>
        <time>2021-08-10T11:05:21Z</time>
      </trkpt>
      <trkpt lat="44.70143" lon="5.80861">
        <ele>1908</ele>
        <time>2021-08-10T11:07:29Z</time>
      </trkpt>
      <trkpt lat="44.70143" lon="5.8086">
        <ele>1907.5999755859</ele>
        <time>2021-08-10T11:10:02Z</time>
      </trkpt>
      <trkpt lat="44.70142" lon="5.8086">
        <ele>1907.4000244141</ele>
        <time>2021-08-10T11:13:21Z</time>
      </trkpt>
      <trkpt lat="44.70142" lon="5.80861">
        <ele>1907.8000488281</ele>
        <time>2021-08-10T11:14:59Z</time>
      </trkpt>
      <trkpt lat="44.70143" lon="5.80861">
        <ele>1907.5999755859</ele>
        <time>2021-08-10T11:15:57Z</time>
      </trkpt>
      <trkpt lat="44.70144" lon="5.8086">
        <ele>1907.5999755859</ele>
        <time>2021-08-10T11:16:54Z</time>
      </trkpt>
      <trkpt lat="44.70144" lon="5.80861">
        <ele>1908.1999511719</ele>
        <time>2021-08-10T11:20:21Z</time>
      </trkpt>
      <trkpt lat="44.70137" lon="5.80866">
        <ele>1908.1999511719</ele>
        <time>2021-08-10T11:20:49Z</time>
      </trkpt>
      <trkpt lat="44.70141" lon="5.80863">
        <ele>1908.4000244141</ele>
        <time>2021-08-10T11:21:14Z</time>
      </trkpt>
      <trkpt lat="44.70146" lon="5.80862">
        <ele>1908</ele>
        <time>2021-08-10T11:21:47Z</time>
      </trkpt>
      <trkpt lat="44.70151" lon="5.80865">
        <ele>1906.5999755859</ele>
        <time>2021-08-10T11:22:00Z</time>
      </trkpt>
      <trkpt lat="44.70165" lon="5.80865">
        <ele>1903.8000488281</ele>
        <time>2021-08-10T11:22:21Z</time>
      </trkpt>
      <trkpt lat="44.70173" lon="5.80865">
        <ele>1903</ele>
        <time>2021-08-10T11:22:45Z</time>
      </trkpt>
      <trkpt lat="44.70186" lon="5.80855">
        <ele>1904</ele>
        <time>2021-08-10T11:23:05Z</time>
      </trkpt>
      <trkpt lat="44.70206" lon="5.80842">
        <ele>1905.5999755859</ele>
        <time>2021-08-10T11:23:27Z</time>
      </trkpt>
      <trkpt lat="44.70218" lon="5.80832">
        <ele>1905.4000244141</ele>
        <time>2021-08-10T11:23:48Z</time>
      </trkpt>
      <trkpt lat="44.70231" lon="5.80813">
        <ele>1905.4000244141</ele>
        <time>2021-08-10T11:24:11Z</time>
      </trkpt>
      <trkpt lat="44.70242" lon="5.80798">
        <ele>1905.1999511719</ele>
        <time>2021-08-10T11:24:32Z</time>
      </trkpt>
      <trkpt lat="44.70256" lon="5.8079">
        <ele>1905.5999755859</ele>
        <time>2021-08-10T11:24:52Z</time>
      </trkpt>
      <trkpt lat="44.7027" lon="5.80797">
        <ele>1908.1999511719</ele>
        <time>2021-08-10T11:25:15Z</time>
      </trkpt>
      <trkpt lat="44.70281" lon="5.80805">
        <ele>1911.1999511719</ele>
        <time>2021-08-10T11:25:37Z</time>
      </trkpt>
      <trkpt lat="44.70292" lon="5.80815">
        <ele>1914.1999511719</ele>
        <time>2021-08-10T11:26:02Z</time>
      </trkpt>
      <trkpt lat="44.70304" lon="5.8082">
        <ele>1917.1999511719</ele>
        <time>2021-08-10T11:26:25Z</time>
      </trkpt>
      <trkpt lat="44.70315" lon="5.80825">
        <ele>1919.1999511719</ele>
        <time>2021-08-10T11:26:48Z</time>
      </trkpt>
      <trkpt lat="44.70323" lon="5.80835">
        <ele>1920.4000244141</ele>
        <time>2021-08-10T11:27:14Z</time>
      </trkpt>
      <trkpt lat="44.70339" lon="5.80853">
        <ele>1921.4000244141</ele>
        <time>2021-08-10T11:27:37Z</time>
      </trkpt>
      <trkpt lat="44.70342" lon="5.80855">
        <ele>1921.8000488281</ele>
        <time>2021-08-10T11:27:40Z</time>
      </trkpt>
      <trkpt lat="44.70358" lon="5.80869">
        <ele>1923</ele>
        <time>2021-08-10T11:28:02Z</time>
      </trkpt>
      <trkpt lat="44.7037" lon="5.80884">
        <ele>1925</ele>
        <time>2021-08-10T11:28:26Z</time>
      </trkpt>
      <trkpt lat="44.70376" lon="5.80893">
        <ele>1926.5999755859</ele>
        <time>2021-08-10T11:28:45Z</time>
      </trkpt>
      <trkpt lat="44.70385" lon="5.80914">
        <ele>1927.5999755859</ele>
        <time>2021-08-10T11:29:07Z</time>
      </trkpt>
      <trkpt lat="44.70391" lon="5.80933">
        <ele>1930</ele>
        <time>2021-08-10T11:29:31Z</time>
      </trkpt>
      <trkpt lat="44.70398" lon="5.80949">
        <ele>1932</ele>
        <time>2021-08-10T11:29:53Z</time>
      </trkpt>
      <trkpt lat="44.70405" lon="5.80958">
        <ele>1935</ele>
        <time>2021-08-10T11:30:13Z</time>
      </trkpt>
      <trkpt lat="44.70408" lon="5.80972">
        <ele>1938.1999511719</ele>
        <time>2021-08-10T11:30:32Z</time>
      </trkpt>
      <trkpt lat="44.70408" lon="5.80989">
        <ele>1941.1999511719</ele>
        <time>2021-08-10T11:30:54Z</time>
      </trkpt>
      <trkpt lat="44.70414" lon="5.81001">
        <ele>1944.4000244141</ele>
        <time>2021-08-10T11:31:19Z</time>
      </trkpt>
      <trkpt lat="44.7042" lon="5.81008">
        <ele>1947.4000244141</ele>
        <time>2021-08-10T11:31:41Z</time>
      </trkpt>
      <trkpt lat="44.70428" lon="5.81015">
        <ele>1950.4000244141</ele>
        <time>2021-08-10T11:32:03Z</time>
      </trkpt>
      <trkpt lat="44.70434" lon="5.81011">
        <ele>1953.4000244141</ele>
        <time>2021-08-10T11:32:25Z</time>
      </trkpt>
      <trkpt lat="44.70442" lon="5.81017">
        <ele>1955.5999755859</ele>
        <time>2021-08-10T11:32:51Z</time>
      </trkpt>
      <trkpt lat="44.70451" lon="5.81018">
        <ele>1958.5999755859</ele>
        <time>2021-08-10T11:33:13Z</time>
      </trkpt>
      <trkpt lat="44.70449" lon="5.81033">
        <ele>1961.5999755859</ele>
        <time>2021-08-10T11:33:35Z</time>
      </trkpt>
      <trkpt lat="44.70455" lon="5.81036">
        <ele>1964.5999755859</ele>
        <time>2021-08-10T11:33:53Z</time>
      </trkpt>
      <trkpt lat="44.70458" lon="5.81035">
        <ele>1967.8000488281</ele>
        <time>2021-08-10T11:34:16Z</time>
      </trkpt>
      <trkpt lat="44.70465" lon="5.81044">
        <ele>1969.8000488281</ele>
        <time>2021-08-10T11:34:42Z</time>
      </trkpt>
      <trkpt lat="44.7047" lon="5.81054">
        <ele>1972.5999755859</ele>
        <time>2021-08-10T11:35:06Z</time>
      </trkpt>
      <trkpt lat="44.70478" lon="5.81058">
        <ele>1975.8000488281</ele>
        <time>2021-08-10T11:35:29Z</time>
      </trkpt>
      <trkpt lat="44.70482" lon="5.81067">
        <ele>1978.8000488281</ele>
        <time>2021-08-10T11:35:53Z</time>
      </trkpt>
      <trkpt lat="44.70485" lon="5.81061">
        <ele>1981.8000488281</ele>
        <time>2021-08-10T11:36:14Z</time>
      </trkpt>
      <trkpt lat="44.70491" lon="5.8107">
        <ele>1983.8000488281</ele>
        <time>2021-08-10T11:36:35Z</time>
      </trkpt>
      <trkpt lat="44.70498" lon="5.8107">
        <ele>1986.8000488281</ele>
        <time>2021-08-10T11:36:55Z</time>
      </trkpt>
      <trkpt lat="44.70499" lon="5.81078">
        <ele>1989.5999755859</ele>
        <time>2021-08-10T11:37:15Z</time>
      </trkpt>
      <trkpt lat="44.70504" lon="5.81085">
        <ele>1992.8000488281</ele>
        <time>2021-08-10T11:37:34Z</time>
      </trkpt>
      <trkpt lat="44.70506" lon="5.8109">
        <ele>1996</ele>
        <time>2021-08-10T11:37:58Z</time>
      </trkpt>
      <trkpt lat="44.70513" lon="5.81097">
        <ele>1999.1999511719</ele>
        <time>2021-08-10T11:38:20Z</time>
      </trkpt>
      <trkpt lat="44.7052" lon="5.81092">
        <ele>2002.1999511719</ele>
        <time>2021-08-10T11:38:47Z</time>
      </trkpt>
      <trkpt lat="44.70524" lon="5.81087">
        <ele>2005.4000244141</ele>
        <time>2021-08-10T11:39:07Z</time>
      </trkpt>
      <trkpt lat="44.70527" lon="5.81087">
        <ele>2008.4000244141</ele>
        <time>2021-08-10T11:39:31Z</time>
      </trkpt>
      <trkpt lat="44.70532" lon="5.81099">
        <ele>2011.5999755859</ele>
        <time>2021-08-10T11:39:57Z</time>
      </trkpt>
      <trkpt lat="44.70536" lon="5.81108">
        <ele>2014.5999755859</ele>
        <time>2021-08-10T11:40:16Z</time>
      </trkpt>
      <trkpt lat="44.70539" lon="5.81121">
        <ele>2017.5999755859</ele>
        <time>2021-08-10T11:40:39Z</time>
      </trkpt>
      <trkpt lat="44.7054" lon="5.81135">
        <ele>2020.8000488281</ele>
        <time>2021-08-10T11:41:02Z</time>
      </trkpt>
      <trkpt lat="44.7054" lon="5.81141">
        <ele>2024</ele>
        <time>2021-08-10T11:41:22Z</time>
      </trkpt>
      <trkpt lat="44.70543" lon="5.81146">
        <ele>2027</ele>
        <time>2021-08-10T11:41:48Z</time>
      </trkpt>
      <trkpt lat="44.70543" lon="5.81157">
        <ele>2030</ele>
        <time>2021-08-10T11:42:09Z</time>
      </trkpt>
      <trkpt lat="44.70547" lon="5.81162">
        <ele>2033.1999511719</ele>
        <time>2021-08-10T11:42:32Z</time>
      </trkpt>
      <trkpt lat="44.7055" lon="5.81164">
        <ele>2034.4000244141</ele>
        <time>2021-08-10T11:42:46Z</time>
      </trkpt>
      <trkpt lat="44.70558" lon="5.81187">
        <ele>2036.4000244141</ele>
        <time>2021-08-10T11:43:13Z</time>
      </trkpt>
      <trkpt lat="44.70553" lon="5.81185">
        <ele>2038.5999755859</ele>
        <time>2021-08-10T11:43:34Z</time>
      </trkpt>
      <trkpt lat="44.70555" lon="5.8118">
        <ele>2041.5999755859</ele>
        <time>2021-08-10T11:43:54Z</time>
      </trkpt>
      <trkpt lat="44.70553" lon="5.81189">
        <ele>2044.5999755859</ele>
        <time>2021-08-10T11:44:15Z</time>
      </trkpt>
      <trkpt lat="44.70552" lon="5.81188">
        <ele>2044.8000488281</ele>
        <time>2021-08-10T11:44:17Z</time>
      </trkpt>
      <trkpt lat="44.70548" lon="5.81195">
        <ele>2048.1999511719</ele>
        <time>2021-08-10T11:44:38Z</time>
      </trkpt>
      <trkpt lat="44.70552" lon="5.81202">
        <ele>2051.1999511719</ele>
        <time>2021-08-10T11:44:59Z</time>
      </trkpt>
      <trkpt lat="44.70546" lon="5.81211">
        <ele>2051.3999023438</ele>
        <time>2021-08-10T11:45:34Z</time>
      </trkpt>
      <trkpt lat="44.70544" lon="5.81208">
        <ele>2054.6000976562</ele>
        <time>2021-08-10T11:45:54Z</time>
      </trkpt>
      <trkpt lat="44.70542" lon="5.81218">
        <ele>2057.8000488281</ele>
        <time>2021-08-10T11:46:17Z</time>
      </trkpt>
      <trkpt lat="44.70548" lon="5.81229">
        <ele>2059.6000976562</ele>
        <time>2021-08-10T11:46:38Z</time>
      </trkpt>
      <trkpt lat="44.7055" lon="5.81239">
        <ele>2058.6000976562</ele>
        <time>2021-08-10T11:47:10Z</time>
      </trkpt>
      <trkpt lat="44.70551" lon="5.81241">
        <ele>2058.6000976562</ele>
        <time>2021-08-10T11:47:50Z</time>
      </trkpt>
      <trkpt lat="44.70555" lon="5.81248">
        <ele>2058.8000488281</ele>
        <time>2021-08-10T11:49:01Z</time>
      </trkpt>
      <trkpt lat="44.70562" lon="5.81261">
        <ele>2058.8000488281</ele>
        <time>2021-08-10T11:49:17Z</time>
      </trkpt>
      <trkpt lat="44.70564" lon="5.81282">
        <ele>2056.8000488281</ele>
        <time>2021-08-10T11:49:36Z</time>
      </trkpt>
      <trkpt lat="44.70563" lon="5.81302">
        <ele>2054.8000488281</ele>
        <time>2021-08-10T11:49:57Z</time>
      </trkpt>
      <trkpt lat="44.7056" lon="5.8132">
        <ele>2052.6000976562</ele>
        <time>2021-08-10T11:50:16Z</time>
      </trkpt>
      <trkpt lat="44.7056" lon="5.81326">
        <ele>2051.6000976562</ele>
        <time>2021-08-10T11:50:43Z</time>
      </trkpt>
      <trkpt lat="44.70559" lon="5.81332">
        <ele>2051</ele>
        <time>2021-08-10T11:51:05Z</time>
      </trkpt>
      <trkpt lat="44.70564" lon="5.81343">
        <ele>2050.1999511719</ele>
        <time>2021-08-10T11:51:48Z</time>
      </trkpt>
      <trkpt lat="44.70566" lon="5.81361">
        <ele>2047.5999755859</ele>
        <time>2021-08-10T11:52:14Z</time>
      </trkpt>
      <trkpt lat="44.70562" lon="5.81372">
        <ele>2045.4000244141</ele>
        <time>2021-08-10T11:52:33Z</time>
      </trkpt>
      <trkpt lat="44.70568" lon="5.81387">
        <ele>2042.4000244141</ele>
        <time>2021-08-10T11:52:53Z</time>
      </trkpt>
      <trkpt lat="44.70571" lon="5.81403">
        <ele>2039.4000244141</ele>
        <time>2021-08-10T11:53:11Z</time>
      </trkpt>
      <trkpt lat="44.70572" lon="5.81416">
        <ele>2036.1999511719</ele>
        <time>2021-08-10T11:53:30Z</time>
      </trkpt>
      <trkpt lat="44.70575" lon="5.81429">
        <ele>2033.4000244141</ele>
        <time>2021-08-10T11:53:51Z</time>
      </trkpt>
      <trkpt lat="44.70582" lon="5.81441">
        <ele>2030.8000488281</ele>
        <time>2021-08-10T11:54:12Z</time>
      </trkpt>
      <trkpt lat="44.70586" lon="5.81456">
        <ele>2027.8000488281</ele>
        <time>2021-08-10T11:54:30Z</time>
      </trkpt>
      <trkpt lat="44.70589" lon="5.81472">
        <ele>2024.5999755859</ele>
        <time>2021-08-10T11:54:49Z</time>
      </trkpt>
      <trkpt lat="44.70588" lon="5.81479">
        <ele>2021.4000244141</ele>
        <time>2021-08-10T11:55:07Z</time>
      </trkpt>
      <trkpt lat="44.70592" lon="5.815">
        <ele>2018.1999511719</ele>
        <time>2021-08-10T11:55:26Z</time>
      </trkpt>
      <trkpt lat="44.70594" lon="5.81514">
        <ele>2015.5999755859</ele>
        <time>2021-08-10T11:55:47Z</time>
      </trkpt>
      <trkpt lat="44.70586" lon="5.81528">
        <ele>2013</ele>
        <time>2021-08-10T11:56:07Z</time>
      </trkpt>
      <trkpt lat="44.70596" lon="5.81542">
        <ele>2010</ele>
        <time>2021-08-10T11:56:25Z</time>
      </trkpt>
      <trkpt lat="44.70606" lon="5.81554">
        <ele>2007.4000244141</ele>
        <time>2021-08-10T11:56:47Z</time>
      </trkpt>
      <trkpt lat="44.7061" lon="5.81572">
        <ele>2004.1999511719</ele>
        <time>2021-08-10T11:57:10Z</time>
      </trkpt>
      <trkpt lat="44.70618" lon="5.81593">
        <ele>2001.5999755859</ele>
        <time>2021-08-10T11:57:33Z</time>
      </trkpt>
      <trkpt lat="44.70621" lon="5.81617">
        <ele>1999</ele>
        <time>2021-08-10T11:57:55Z</time>
      </trkpt>
      <trkpt lat="44.70622" lon="5.81634">
        <ele>1995.8000488281</ele>
        <time>2021-08-10T11:58:15Z</time>
      </trkpt>
      <trkpt lat="44.70618" lon="5.81639">
        <ele>1994.5999755859</ele>
        <time>2021-08-10T11:58:25Z</time>
      </trkpt>
      <trkpt lat="44.70616" lon="5.81638">
        <ele>1994.4000244141</ele>
        <time>2021-08-10T11:58:27Z</time>
      </trkpt>
      <trkpt lat="44.70606" lon="5.81623">
        <ele>1991.5999755859</ele>
        <time>2021-08-10T11:58:44Z</time>
      </trkpt>
      <trkpt lat="44.70601" lon="5.81622">
        <ele>1990</ele>
        <time>2021-08-10T11:58:59Z</time>
      </trkpt>
      <trkpt lat="44.706" lon="5.81639">
        <ele>1988.4000244141</ele>
        <time>2021-08-10T11:59:19Z</time>
      </trkpt>
      <trkpt lat="44.70601" lon="5.81651">
        <ele>1985.4000244141</ele>
        <time>2021-08-10T11:59:39Z</time>
      </trkpt>
      <trkpt lat="44.70602" lon="5.81661">
        <ele>1984.8000488281</ele>
        <time>2021-08-10T12:00:14Z</time>
      </trkpt>
      <trkpt lat="44.70607" lon="5.81676">
        <ele>1981.5999755859</ele>
        <time>2021-08-10T12:00:35Z</time>
      </trkpt>
      <trkpt lat="44.70611" lon="5.81693">
        <ele>1978.5999755859</ele>
        <time>2021-08-10T12:00:54Z</time>
      </trkpt>
      <trkpt lat="44.7061" lon="5.81711">
        <ele>1975.4000244141</ele>
        <time>2021-08-10T12:01:12Z</time>
      </trkpt>
      <trkpt lat="44.70614" lon="5.81729">
        <ele>1973.1999511719</ele>
        <time>2021-08-10T12:01:35Z</time>
      </trkpt>
      <trkpt lat="44.7062" lon="5.81751">
        <ele>1971</ele>
        <time>2021-08-10T12:02:01Z</time>
      </trkpt>
      <trkpt lat="44.70629" lon="5.81774">
        <ele>1968.5999755859</ele>
        <time>2021-08-10T12:02:26Z</time>
      </trkpt>
      <trkpt lat="44.70631" lon="5.81782">
        <ele>1965.4000244141</ele>
        <time>2021-08-10T12:02:43Z</time>
      </trkpt>
      <trkpt lat="44.70634" lon="5.81807">
        <ele>1962.4000244141</ele>
        <time>2021-08-10T12:03:05Z</time>
      </trkpt>
      <trkpt lat="44.70639" lon="5.81822">
        <ele>1959.1999511719</ele>
        <time>2021-08-10T12:03:23Z</time>
      </trkpt>
      <trkpt lat="44.70636" lon="5.8184">
        <ele>1956.1999511719</ele>
        <time>2021-08-10T12:03:39Z</time>
      </trkpt>
      <trkpt lat="44.70638" lon="5.81851">
        <ele>1953.1999511719</ele>
        <time>2021-08-10T12:03:57Z</time>
      </trkpt>
      <trkpt lat="44.70647" lon="5.81863">
        <ele>1950</ele>
        <time>2021-08-10T12:04:14Z</time>
      </trkpt>
      <trkpt lat="44.70651" lon="5.81874">
        <ele>1947</ele>
        <time>2021-08-10T12:04:29Z</time>
      </trkpt>
      <trkpt lat="44.70652" lon="5.81881">
        <ele>1944</ele>
        <time>2021-08-10T12:04:46Z</time>
      </trkpt>
      <trkpt lat="44.70643" lon="5.81881">
        <ele>1940.8000488281</ele>
        <time>2021-08-10T12:05:08Z</time>
      </trkpt>
      <trkpt lat="44.70646" lon="5.81893">
        <ele>1938.8000488281</ele>
        <time>2021-08-10T12:05:30Z</time>
      </trkpt>
      <trkpt lat="44.7065" lon="5.81912">
        <ele>1935.5999755859</ele>
        <time>2021-08-10T12:05:54Z</time>
      </trkpt>
      <trkpt lat="44.70657" lon="5.81928">
        <ele>1932.4000244141</ele>
        <time>2021-08-10T12:06:16Z</time>
      </trkpt>
      <trkpt lat="44.70666" lon="5.81942">
        <ele>1929.5999755859</ele>
        <time>2021-08-10T12:06:39Z</time>
      </trkpt>
      <trkpt lat="44.70666" lon="5.81945">
        <ele>1928.1999511719</ele>
        <time>2021-08-10T12:06:54Z</time>
      </trkpt>
      <trkpt lat="44.70676" lon="5.8196">
        <ele>1926.4000244141</ele>
        <time>2021-08-10T12:07:17Z</time>
      </trkpt>
      <trkpt lat="44.7068" lon="5.81979">
        <ele>1923.5999755859</ele>
        <time>2021-08-10T12:07:40Z</time>
      </trkpt>
      <trkpt lat="44.70674" lon="5.81987">
        <ele>1920.4000244141</ele>
        <time>2021-08-10T12:08:03Z</time>
      </trkpt>
      <trkpt lat="44.70667" lon="5.82">
        <ele>1918</ele>
        <time>2021-08-10T12:08:24Z</time>
      </trkpt>
      <trkpt lat="44.70667" lon="5.82017">
        <ele>1916.8000488281</ele>
        <time>2021-08-10T12:08:35Z</time>
      </trkpt>
      <trkpt lat="44.70667" lon="5.82026">
        <ele>1916</ele>
        <time>2021-08-10T12:08:42Z</time>
      </trkpt>
      <trkpt lat="44.70674" lon="5.82069">
        <ele>1913</ele>
        <time>2021-08-10T12:09:11Z</time>
      </trkpt>
      <trkpt lat="44.70678" lon="5.82098">
        <ele>1910.8000488281</ele>
        <time>2021-08-10T12:09:31Z</time>
      </trkpt>
      <trkpt lat="44.70685" lon="5.82123">
        <ele>1908.4000244141</ele>
        <time>2021-08-10T12:09:51Z</time>
      </trkpt>
      <trkpt lat="44.70689" lon="5.82158">
        <ele>1906.1999511719</ele>
        <time>2021-08-10T12:10:16Z</time>
      </trkpt>
      <trkpt lat="44.70693" lon="5.82179">
        <ele>1905.1999511719</ele>
        <time>2021-08-10T12:10:42Z</time>
      </trkpt>
      <trkpt lat="44.70707" lon="5.82193">
        <ele>1902.1999511719</ele>
        <time>2021-08-10T12:11:02Z</time>
      </trkpt>
      <trkpt lat="44.70718" lon="5.82197">
        <ele>1899.1999511719</ele>
        <time>2021-08-10T12:11:19Z</time>
      </trkpt>
      <trkpt lat="44.70721" lon="5.82209">
        <ele>1896</ele>
        <time>2021-08-10T12:11:37Z</time>
      </trkpt>
      <trkpt lat="44.70726" lon="5.82227">
        <ele>1892.8000488281</ele>
        <time>2021-08-10T12:11:55Z</time>
      </trkpt>
      <trkpt lat="44.70731" lon="5.82235">
        <ele>1889.5999755859</ele>
        <time>2021-08-10T12:12:10Z</time>
      </trkpt>
      <trkpt lat="44.70738" lon="5.82247">
        <ele>1886.5999755859</ele>
        <time>2021-08-10T12:12:26Z</time>
      </trkpt>
      <trkpt lat="44.70745" lon="5.8226">
        <ele>1883.4000244141</ele>
        <time>2021-08-10T12:12:43Z</time>
      </trkpt>
      <trkpt lat="44.70747" lon="5.82276">
        <ele>1880.4000244141</ele>
        <time>2021-08-10T12:12:58Z</time>
      </trkpt>
      <trkpt lat="44.70748" lon="5.82284">
        <ele>1877.4000244141</ele>
        <time>2021-08-10T12:13:17Z</time>
      </trkpt>
      <trkpt lat="44.70743" lon="5.82303">
        <ele>1874.5999755859</ele>
        <time>2021-08-10T12:13:36Z</time>
      </trkpt>
      <trkpt lat="44.70747" lon="5.82317">
        <ele>1871.4000244141</ele>
        <time>2021-08-10T12:13:54Z</time>
      </trkpt>
      <trkpt lat="44.70752" lon="5.82331">
        <ele>1868.4000244141</ele>
        <time>2021-08-10T12:14:09Z</time>
      </trkpt>
      <trkpt lat="44.70756" lon="5.82344">
        <ele>1867</ele>
        <time>2021-08-10T12:14:21Z</time>
      </trkpt>
      <trkpt lat="44.70759" lon="5.82346">
        <ele>1866.4000244141</ele>
        <time>2021-08-10T12:14:26Z</time>
      </trkpt>
      <trkpt lat="44.70767" lon="5.82366">
        <ele>1864.1999511719</ele>
        <time>2021-08-10T12:14:45Z</time>
      </trkpt>
      <trkpt lat="44.70775" lon="5.82393">
        <ele>1861</ele>
        <time>2021-08-10T12:15:12Z</time>
      </trkpt>
      <trkpt lat="44.70785" lon="5.82414">
        <ele>1860</ele>
        <time>2021-08-10T12:15:29Z</time>
      </trkpt>
      <trkpt lat="44.70794" lon="5.82432">
        <ele>1857.8000488281</ele>
        <time>2021-08-10T12:15:47Z</time>
      </trkpt>
      <trkpt lat="44.70806" lon="5.82447">
        <ele>1856.1999511719</ele>
        <time>2021-08-10T12:16:04Z</time>
      </trkpt>
      <trkpt lat="44.70811" lon="5.82461">
        <ele>1854.8000488281</ele>
        <time>2021-08-10T12:16:20Z</time>
      </trkpt>
      <trkpt lat="44.70821" lon="5.82485">
        <ele>1854</ele>
        <time>2021-08-10T12:16:38Z</time>
      </trkpt>
      <trkpt lat="44.70823" lon="5.82502">
        <ele>1853.5999755859</ele>
        <time>2021-08-10T12:16:52Z</time>
      </trkpt>
      <trkpt lat="44.70833" lon="5.82511">
        <ele>1851</ele>
        <time>2021-08-10T12:17:05Z</time>
      </trkpt>
      <trkpt lat="44.70842" lon="5.8253">
        <ele>1847.8000488281</ele>
        <time>2021-08-10T12:17:24Z</time>
      </trkpt>
      <trkpt lat="44.70843" lon="5.82536">
        <ele>1847.4000244141</ele>
        <time>2021-08-10T12:17:30Z</time>
      </trkpt>
      <trkpt lat="44.70846" lon="5.8255">
        <ele>1845.8000488281</ele>
        <time>2021-08-10T12:17:56Z</time>
      </trkpt>
      <trkpt lat="44.70853" lon="5.82568">
        <ele>1845.5999755859</ele>
        <time>2021-08-10T12:18:19Z</time>
      </trkpt>
      <trkpt lat="44.70861" lon="5.82593">
        <ele>1843.4000244141</ele>
        <time>2021-08-10T12:18:45Z</time>
      </trkpt>
      <trkpt lat="44.70861" lon="5.8261">
        <ele>1840.1999511719</ele>
        <time>2021-08-10T12:19:00Z</time>
      </trkpt>
      <trkpt lat="44.70862" lon="5.82618">
        <ele>1837</ele>
        <time>2021-08-10T12:19:17Z</time>
      </trkpt>
      <trkpt lat="44.70865" lon="5.82631">
        <ele>1834</ele>
        <time>2021-08-10T12:19:33Z</time>
      </trkpt>
      <trkpt lat="44.70867" lon="5.82649">
        <ele>1831</ele>
        <time>2021-08-10T12:19:51Z</time>
      </trkpt>
      <trkpt lat="44.70876" lon="5.82664">
        <ele>1827.8000488281</ele>
        <time>2021-08-10T12:20:09Z</time>
      </trkpt>
      <trkpt lat="44.7088" lon="5.82684">
        <ele>1826.4000244141</ele>
        <time>2021-08-10T12:20:32Z</time>
      </trkpt>
      <trkpt lat="44.70885" lon="5.82697">
        <ele>1825.4000244141</ele>
        <time>2021-08-10T12:20:56Z</time>
      </trkpt>
      <trkpt lat="44.70898" lon="5.82708">
        <ele>1822.1999511719</ele>
        <time>2021-08-10T12:21:21Z</time>
      </trkpt>
      <trkpt lat="44.70902" lon="5.82722">
        <ele>1819</ele>
        <time>2021-08-10T12:21:40Z</time>
      </trkpt>
      <trkpt lat="44.70913" lon="5.8273">
        <ele>1815.8000488281</ele>
        <time>2021-08-10T12:22:00Z</time>
      </trkpt>
      <trkpt lat="44.70917" lon="5.82735">
        <ele>1813.4000244141</ele>
        <time>2021-08-10T12:22:10Z</time>
      </trkpt>
      <trkpt lat="44.70924" lon="5.82742">
        <ele>1810</ele>
        <time>2021-08-10T12:22:28Z</time>
      </trkpt>
      <trkpt lat="44.70924" lon="5.82746">
        <ele>1809.5999755859</ele>
        <time>2021-08-10T12:22:33Z</time>
      </trkpt>
      <trkpt lat="44.70936" lon="5.8275">
        <ele>1806.4000244141</ele>
        <time>2021-08-10T12:22:52Z</time>
      </trkpt>
      <trkpt lat="44.70949" lon="5.82751">
        <ele>1803.4000244141</ele>
        <time>2021-08-10T12:23:14Z</time>
      </trkpt>
      <trkpt lat="44.70956" lon="5.82766">
        <ele>1800.1999511719</ele>
        <time>2021-08-10T12:23:30Z</time>
      </trkpt>
      <trkpt lat="44.70951" lon="5.82784">
        <ele>1797.1999511719</ele>
        <time>2021-08-10T12:23:48Z</time>
      </trkpt>
      <trkpt lat="44.70946" lon="5.82806">
        <ele>1794.1999511719</ele>
        <time>2021-08-10T12:24:08Z</time>
      </trkpt>
      <trkpt lat="44.70947" lon="5.82831">
        <ele>1791.8000488281</ele>
        <time>2021-08-10T12:24:28Z</time>
      </trkpt>
      <trkpt lat="44.70956" lon="5.82846">
        <ele>1788.4000244141</ele>
        <time>2021-08-10T12:24:50Z</time>
      </trkpt>
      <trkpt lat="44.70967" lon="5.82855">
        <ele>1785.4000244141</ele>
        <time>2021-08-10T12:25:06Z</time>
      </trkpt>
      <trkpt lat="44.70969" lon="5.82875">
        <ele>1782.4000244141</ele>
        <time>2021-08-10T12:25:27Z</time>
      </trkpt>
      <trkpt lat="44.7097" lon="5.82882">
        <ele>1780.8000488281</ele>
        <time>2021-08-10T12:25:33Z</time>
      </trkpt>
      <trkpt lat="44.7097" lon="5.82884">
        <ele>1780.4000244141</ele>
        <time>2021-08-10T12:25:37Z</time>
      </trkpt>
      <trkpt lat="44.70958" lon="5.82921">
        <ele>1779.4000244141</ele>
        <time>2021-08-10T12:26:03Z</time>
      </trkpt>
      <trkpt lat="44.70956" lon="5.82937">
        <ele>1777.4000244141</ele>
        <time>2021-08-10T12:26:15Z</time>
      </trkpt>
      <trkpt lat="44.70961" lon="5.82962">
        <ele>1774.1999511719</ele>
        <time>2021-08-10T12:26:35Z</time>
      </trkpt>
      <trkpt lat="44.70968" lon="5.82979">
        <ele>1771.1999511719</ele>
        <time>2021-08-10T12:26:54Z</time>
      </trkpt>
      <trkpt lat="44.70969" lon="5.83013">
        <ele>1769.8000488281</ele>
        <time>2021-08-10T12:27:22Z</time>
      </trkpt>
      <trkpt lat="44.70968" lon="5.83014">
        <ele>1769.8000488281</ele>
        <time>2021-08-10T12:27:24Z</time>
      </trkpt>
      <trkpt lat="44.70962" lon="5.83014">
        <ele>1769.1999511719</ele>
        <time>2021-08-10T12:27:29Z</time>
      </trkpt>
      <trkpt lat="44.70967" lon="5.83023">
        <ele>1769</ele>
        <time>2021-08-10T12:27:37Z</time>
      </trkpt>
      <trkpt lat="44.70966" lon="5.83054">
        <ele>1767.1999511719</ele>
        <time>2021-08-10T12:27:59Z</time>
      </trkpt>
      <trkpt lat="44.70955" lon="5.83103">
        <ele>1765.5999755859</ele>
        <time>2021-08-10T12:28:28Z</time>
      </trkpt>
      <trkpt lat="44.70962" lon="5.83113">
        <ele>1763.4000244141</ele>
        <time>2021-08-10T12:28:47Z</time>
      </trkpt>
      <trkpt lat="44.70961" lon="5.83137">
        <ele>1762.5999755859</ele>
        <time>2021-08-10T12:29:05Z</time>
      </trkpt>
      <trkpt lat="44.70961" lon="5.83168">
        <ele>1761.5999755859</ele>
        <time>2021-08-10T12:29:30Z</time>
      </trkpt>
      <trkpt lat="44.70962" lon="5.83173">
        <ele>1761.4000244141</ele>
        <time>2021-08-10T12:29:34Z</time>
      </trkpt>
      <trkpt lat="44.70952" lon="5.83211">
        <ele>1759.5999755859</ele>
        <time>2021-08-10T12:30:03Z</time>
      </trkpt>
      <trkpt lat="44.70954" lon="5.83244">
        <ele>1758.5999755859</ele>
        <time>2021-08-10T12:30:29Z</time>
      </trkpt>
      <trkpt lat="44.7095" lon="5.83271">
        <ele>1757.1999511719</ele>
        <time>2021-08-10T12:30:49Z</time>
      </trkpt>
      <trkpt lat="44.70948" lon="5.83278">
        <ele>1757</ele>
        <time>2021-08-10T12:30:53Z</time>
      </trkpt>
      <trkpt lat="44.70942" lon="5.83316">
        <ele>1755.5999755859</ele>
        <time>2021-08-10T12:31:21Z</time>
      </trkpt>
      <trkpt lat="44.70942" lon="5.83341">
        <ele>1754.8000488281</ele>
        <time>2021-08-10T12:31:39Z</time>
      </trkpt>
      <trkpt lat="44.70941" lon="5.83353">
        <ele>1755</ele>
        <time>2021-08-10T12:31:56Z</time>
      </trkpt>
      <trkpt lat="44.70938" lon="5.83359">
        <ele>1755</ele>
        <time>2021-08-10T12:32:06Z</time>
      </trkpt>
      <trkpt lat="44.7093" lon="5.83381">
        <ele>1753.8000488281</ele>
        <time>2021-08-10T12:32:22Z</time>
      </trkpt>
      <trkpt lat="44.70916" lon="5.83423">
        <ele>1752.8000488281</ele>
        <time>2021-08-10T12:32:49Z</time>
      </trkpt>
      <trkpt lat="44.70912" lon="5.83441">
        <ele>1750.4000244141</ele>
        <time>2021-08-10T12:33:13Z</time>
      </trkpt>
      <trkpt lat="44.70897" lon="5.83477">
        <ele>1747.5999755859</ele>
        <time>2021-08-10T12:33:41Z</time>
      </trkpt>
      <trkpt lat="44.70897" lon="5.8348">
        <ele>1747.5999755859</ele>
        <time>2021-08-10T12:33:43Z</time>
      </trkpt>
      <trkpt lat="44.70896" lon="5.83484">
        <ele>1747.1999511719</ele>
        <time>2021-08-10T12:33:47Z</time>
      </trkpt>
      <trkpt lat="44.70883" lon="5.83507">
        <ele>1747</ele>
        <time>2021-08-10T12:34:03Z</time>
      </trkpt>
      <trkpt lat="44.7088" lon="5.83514">
        <ele>1747.1999511719</ele>
        <time>2021-08-10T12:34:11Z</time>
      </trkpt>
      <trkpt lat="44.70877" lon="5.83527">
        <ele>1747.1999511719</ele>
        <time>2021-08-10T12:34:19Z</time>
      </trkpt>
      <trkpt lat="44.70874" lon="5.83533">
        <ele>1747.1999511719</ele>
        <time>2021-08-10T12:34:23Z</time>
      </trkpt>
      <trkpt lat="44.70873" lon="5.83535">
        <ele>1747.1999511719</ele>
        <time>2021-08-10T12:34:25Z</time>
      </trkpt>
      <trkpt lat="44.70871" lon="5.83541">
        <ele>1747.1999511719</ele>
        <time>2021-08-10T12:34:28Z</time>
      </trkpt>
      <trkpt lat="44.70874" lon="5.83544">
        <ele>1747</ele>
        <time>2021-08-10T12:34:36Z</time>
      </trkpt>
      <trkpt lat="44.70873" lon="5.83552">
        <ele>1746.5999755859</ele>
        <time>2021-08-10T12:34:43Z</time>
      </trkpt>
      <trkpt lat="44.70871" lon="5.83558">
        <ele>1746.4000244141</ele>
        <time>2021-08-10T12:34:47Z</time>
      </trkpt>
      <trkpt lat="44.70868" lon="5.83565">
        <ele>1746.1999511719</ele>
        <time>2021-08-10T12:34:57Z</time>
      </trkpt>
      <trkpt lat="44.70863" lon="5.83582">
        <ele>1746</ele>
        <time>2021-08-10T12:35:13Z</time>
      </trkpt>
      <trkpt lat="44.7086" lon="5.83589">
        <ele>1746</ele>
        <time>2021-08-10T12:35:20Z</time>
      </trkpt>
      <trkpt lat="44.70854" lon="5.83601">
        <ele>1746.8000488281</ele>
        <time>2021-08-10T12:35:35Z</time>
      </trkpt>
      <trkpt lat="44.70844" lon="5.83618">
        <ele>1747.5999755859</ele>
        <time>2021-08-10T12:35:56Z</time>
      </trkpt>
      <trkpt lat="44.70833" lon="5.83646">
        <ele>1749</ele>
        <time>2021-08-10T12:36:21Z</time>
      </trkpt>
      <trkpt lat="44.70826" lon="5.8366">
        <ele>1750.4000244141</ele>
        <time>2021-08-10T12:36:44Z</time>
      </trkpt>
      <trkpt lat="44.70817" lon="5.83673">
        <ele>1751</ele>
        <time>2021-08-10T12:37:11Z</time>
      </trkpt>
      <trkpt lat="44.70814" lon="5.83684">
        <ele>1750.8000488281</ele>
        <time>2021-08-10T12:37:36Z</time>
      </trkpt>
      <trkpt lat="44.70805" lon="5.83704">
        <ele>1749.1999511719</ele>
        <time>2021-08-10T12:38:00Z</time>
      </trkpt>
      <trkpt lat="44.70796" lon="5.83733">
        <ele>1746.1999511719</ele>
        <time>2021-08-10T12:38:26Z</time>
      </trkpt>
      <trkpt lat="44.70786" lon="5.83758">
        <ele>1744.4000244141</ele>
        <time>2021-08-10T12:38:47Z</time>
      </trkpt>
      <trkpt lat="44.70775" lon="5.83778">
        <ele>1744.1999511719</ele>
        <time>2021-08-10T12:39:10Z</time>
      </trkpt>
      <trkpt lat="44.70768" lon="5.83803">
        <ele>1744.1999511719</ele>
        <time>2021-08-10T12:39:34Z</time>
      </trkpt>
      <trkpt lat="44.70759" lon="5.8382">
        <ele>1744.5999755859</ele>
        <time>2021-08-10T12:39:53Z</time>
      </trkpt>
      <trkpt lat="44.7075" lon="5.83839">
        <ele>1745.8000488281</ele>
        <time>2021-08-10T12:40:14Z</time>
      </trkpt>
      <trkpt lat="44.70733" lon="5.83859">
        <ele>1747.8000488281</ele>
        <time>2021-08-10T12:40:34Z</time>
      </trkpt>
      <trkpt lat="44.70731" lon="5.83874">
        <ele>1750.4000244141</ele>
        <time>2021-08-10T12:40:56Z</time>
      </trkpt>
      <trkpt lat="44.70725" lon="5.83897">
        <ele>1751.8000488281</ele>
        <time>2021-08-10T12:41:21Z</time>
      </trkpt>
      <trkpt lat="44.70721" lon="5.83921">
        <ele>1753</ele>
        <time>2021-08-10T12:41:43Z</time>
      </trkpt>
      <trkpt lat="44.70725" lon="5.83944">
        <ele>1754.1999511719</ele>
        <time>2021-08-10T12:42:04Z</time>
      </trkpt>
      <trkpt lat="44.70728" lon="5.83968">
        <ele>1755.4000244141</ele>
        <time>2021-08-10T12:42:25Z</time>
      </trkpt>
      <trkpt lat="44.70724" lon="5.8399">
        <ele>1758.4000244141</ele>
        <time>2021-08-10T12:42:48Z</time>
      </trkpt>
      <trkpt lat="44.70723" lon="5.84014">
        <ele>1761.4000244141</ele>
        <time>2021-08-10T12:43:10Z</time>
      </trkpt>
      <trkpt lat="44.70719" lon="5.84036">
        <ele>1763.4000244141</ele>
        <time>2021-08-10T12:43:31Z</time>
      </trkpt>
      <trkpt lat="44.70724" lon="5.84045">
        <ele>1766.1999511719</ele>
        <time>2021-08-10T12:43:53Z</time>
      </trkpt>
      <trkpt lat="44.70723" lon="5.84038">
        <ele>1769.4000244141</ele>
        <time>2021-08-10T12:44:15Z</time>
      </trkpt>
      <trkpt lat="44.70714" lon="5.84044">
        <ele>1770.5999755859</ele>
        <time>2021-08-10T12:44:35Z</time>
      </trkpt>
      <trkpt lat="44.70721" lon="5.84059">
        <ele>1773</ele>
        <time>2021-08-10T12:44:53Z</time>
      </trkpt>
      <trkpt lat="44.70715" lon="5.84064">
        <ele>1775.4000244141</ele>
        <time>2021-08-10T12:45:13Z</time>
      </trkpt>
      <trkpt lat="44.70711" lon="5.84064">
        <ele>1777</ele>
        <time>2021-08-10T12:45:48Z</time>
      </trkpt>
      <trkpt lat="44.7071" lon="5.84064">
        <ele>1778.4000244141</ele>
        <time>2021-08-10T12:46:21Z</time>
      </trkpt>
      <trkpt lat="44.70709" lon="5.84063">
        <ele>1779.1999511719</ele>
        <time>2021-08-10T12:47:30Z</time>
      </trkpt>
      <trkpt lat="44.70698" lon="5.84068">
        <ele>1780.1999511719</ele>
        <time>2021-08-10T12:47:50Z</time>
      </trkpt>
      <trkpt lat="44.70688" lon="5.8408">
        <ele>1783.1999511719</ele>
        <time>2021-08-10T12:48:10Z</time>
      </trkpt>
      <trkpt lat="44.70694" lon="5.84093">
        <ele>1785.5999755859</ele>
        <time>2021-08-10T12:48:28Z</time>
      </trkpt>
      <trkpt lat="44.70699" lon="5.84102">
        <ele>1787.1999511719</ele>
        <time>2021-08-10T12:48:47Z</time>
      </trkpt>
      <trkpt lat="44.70696" lon="5.84113">
        <ele>1788.8000488281</ele>
        <time>2021-08-10T12:49:04Z</time>
      </trkpt>
      <trkpt lat="44.70687" lon="5.84125">
        <ele>1790</ele>
        <time>2021-08-10T12:49:24Z</time>
      </trkpt>
      <trkpt lat="44.70682" lon="5.84124">
        <ele>1792.1999511719</ele>
        <time>2021-08-10T12:49:59Z</time>
      </trkpt>
      <trkpt lat="44.70673" lon="5.84125">
        <ele>1792</ele>
        <time>2021-08-10T12:50:16Z</time>
      </trkpt>
      <trkpt lat="44.70661" lon="5.84129">
        <ele>1791.5999755859</ele>
        <time>2021-08-10T12:50:32Z</time>
      </trkpt>
      <trkpt lat="44.7065" lon="5.84135">
        <ele>1791.8000488281</ele>
        <time>2021-08-10T12:50:48Z</time>
      </trkpt>
      <trkpt lat="44.70639" lon="5.84143">
        <ele>1791.5999755859</ele>
        <time>2021-08-10T12:51:05Z</time>
      </trkpt>
      <trkpt lat="44.70628" lon="5.84157">
        <ele>1791.5999755859</ele>
        <time>2021-08-10T12:51:22Z</time>
      </trkpt>
      <trkpt lat="44.70615" lon="5.84172">
        <ele>1791.8000488281</ele>
        <time>2021-08-10T12:51:44Z</time>
      </trkpt>
      <trkpt lat="44.706" lon="5.84177">
        <ele>1792.1999511719</ele>
        <time>2021-08-10T12:52:06Z</time>
      </trkpt>
      <trkpt lat="44.70588" lon="5.8418">
        <ele>1791</ele>
        <time>2021-08-10T12:52:22Z</time>
      </trkpt>
      <trkpt lat="44.70575" lon="5.84186">
        <ele>1790.4000244141</ele>
        <time>2021-08-10T12:52:40Z</time>
      </trkpt>
      <trkpt lat="44.70563" lon="5.84193">
        <ele>1790.8000488281</ele>
        <time>2021-08-10T12:52:56Z</time>
      </trkpt>
      <trkpt lat="44.7055" lon="5.84201">
        <ele>1790.4000244141</ele>
        <time>2021-08-10T12:53:12Z</time>
      </trkpt>
      <trkpt lat="44.70534" lon="5.84213">
        <ele>1790</ele>
        <time>2021-08-10T12:53:34Z</time>
      </trkpt>
      <trkpt lat="44.70528" lon="5.84216">
        <ele>1789</ele>
        <time>2021-08-10T12:53:49Z</time>
      </trkpt>
      <trkpt lat="44.70512" lon="5.84226">
        <ele>1788.1999511719</ele>
        <time>2021-08-10T12:54:09Z</time>
      </trkpt>
      <trkpt lat="44.70502" lon="5.84234">
        <ele>1786.5999755859</ele>
        <time>2021-08-10T12:54:26Z</time>
      </trkpt>
      <trkpt lat="44.70497" lon="5.84239">
        <ele>1785.8000488281</ele>
        <time>2021-08-10T12:54:32Z</time>
      </trkpt>
      <trkpt lat="44.70489" lon="5.84245">
        <ele>1784.5999755859</ele>
        <time>2021-08-10T12:54:51Z</time>
      </trkpt>
      <trkpt lat="44.70484" lon="5.84253">
        <ele>1784.4000244141</ele>
        <time>2021-08-10T12:55:25Z</time>
      </trkpt>
      <trkpt lat="44.70477" lon="5.84262">
        <ele>1783.8000488281</ele>
        <time>2021-08-10T12:55:46Z</time>
      </trkpt>
      <trkpt lat="44.70461" lon="5.84277">
        <ele>1782.8000488281</ele>
        <time>2021-08-10T12:56:05Z</time>
      </trkpt>
      <trkpt lat="44.70451" lon="5.84284">
        <ele>1782.4000244141</ele>
        <time>2021-08-10T12:56:16Z</time>
      </trkpt>
      <trkpt lat="44.7045" lon="5.84285">
        <ele>1782.4000244141</ele>
        <time>2021-08-10T12:56:18Z</time>
      </trkpt>
      <trkpt lat="44.70434" lon="5.8429">
        <ele>1779.8000488281</ele>
        <time>2021-08-10T12:56:40Z</time>
      </trkpt>
      <trkpt lat="44.70417" lon="5.84299">
        <ele>1777.5999755859</ele>
        <time>2021-08-10T12:57:02Z</time>
      </trkpt>
      <trkpt lat="44.70408" lon="5.84309">
        <ele>1776.8000488281</ele>
        <time>2021-08-10T12:57:15Z</time>
      </trkpt>
      <trkpt lat="44.70402" lon="5.84327">
        <ele>1776.1999511719</ele>
        <time>2021-08-10T12:57:30Z</time>
      </trkpt>
      <trkpt lat="44.70396" lon="5.84348">
        <ele>1776.4000244141</ele>
        <time>2021-08-10T12:57:50Z</time>
      </trkpt>
      <trkpt lat="44.70393" lon="5.84367">
        <ele>1776.5999755859</ele>
        <time>2021-08-10T12:58:07Z</time>
      </trkpt>
      <trkpt lat="44.70393" lon="5.84383">
        <ele>1776.8000488281</ele>
        <time>2021-08-10T12:58:22Z</time>
      </trkpt>
      <trkpt lat="44.70389" lon="5.84405">
        <ele>1776.5999755859</ele>
        <time>2021-08-10T12:58:43Z</time>
      </trkpt>
      <trkpt lat="44.70381" lon="5.84423">
        <ele>1776.4000244141</ele>
        <time>2021-08-10T12:59:01Z</time>
      </trkpt>
      <trkpt lat="44.70375" lon="5.84439">
        <ele>1777</ele>
        <time>2021-08-10T12:59:18Z</time>
      </trkpt>
      <trkpt lat="44.70375" lon="5.84442">
        <ele>1777.1999511719</ele>
        <time>2021-08-10T12:59:20Z</time>
      </trkpt>
      <trkpt lat="44.70373" lon="5.84448">
        <ele>1777.4000244141</ele>
        <time>2021-08-10T12:59:26Z</time>
      </trkpt>
      <trkpt lat="44.7037" lon="5.84465">
        <ele>1777.8000488281</ele>
        <time>2021-08-10T12:59:42Z</time>
      </trkpt>
      <trkpt lat="44.70367" lon="5.84481">
        <ele>1776.1999511719</ele>
        <time>2021-08-10T13:00:00Z</time>
      </trkpt>
      <trkpt lat="44.70361" lon="5.84501">
        <ele>1773.5999755859</ele>
        <time>2021-08-10T13:00:19Z</time>
      </trkpt>
      <trkpt lat="44.70356" lon="5.84515">
        <ele>1772.5999755859</ele>
        <time>2021-08-10T13:00:32Z</time>
      </trkpt>
      <trkpt lat="44.70351" lon="5.8453">
        <ele>1771</ele>
        <time>2021-08-10T13:00:49Z</time>
      </trkpt>
      <trkpt lat="44.70349" lon="5.84547">
        <ele>1769.5999755859</ele>
        <time>2021-08-10T13:01:07Z</time>
      </trkpt>
      <trkpt lat="44.70344" lon="5.84565">
        <ele>1768</ele>
        <time>2021-08-10T13:01:25Z</time>
      </trkpt>
      <trkpt lat="44.7034" lon="5.84579">
        <ele>1765.1999511719</ele>
        <time>2021-08-10T13:01:42Z</time>
      </trkpt>
      <trkpt lat="44.70333" lon="5.8459">
        <ele>1762.8000488281</ele>
        <time>2021-08-10T13:02:00Z</time>
      </trkpt>
      <trkpt lat="44.70328" lon="5.84598">
        <ele>1760.5999755859</ele>
        <time>2021-08-10T13:02:19Z</time>
      </trkpt>
      <trkpt lat="44.70325" lon="5.84604">
        <ele>1760.5999755859</ele>
        <time>2021-08-10T13:02:25Z</time>
      </trkpt>
      <trkpt lat="44.70316" lon="5.84628">
        <ele>1757.5999755859</ele>
        <time>2021-08-10T13:02:46Z</time>
      </trkpt>
      <trkpt lat="44.70311" lon="5.84653">
        <ele>1754.5999755859</ele>
        <time>2021-08-10T13:03:06Z</time>
      </trkpt>
      <trkpt lat="44.70306" lon="5.84673">
        <ele>1751.4000244141</ele>
        <time>2021-08-10T13:03:25Z</time>
      </trkpt>
      <trkpt lat="44.703" lon="5.84686">
        <ele>1748.5999755859</ele>
        <time>2021-08-10T13:03:40Z</time>
      </trkpt>
      <trkpt lat="44.70281" lon="5.84696">
        <ele>1745.5999755859</ele>
        <time>2021-08-10T13:04:00Z</time>
      </trkpt>
      <trkpt lat="44.70271" lon="5.84701">
        <ele>1745.5999755859</ele>
        <time>2021-08-10T13:04:15Z</time>
      </trkpt>
      <trkpt lat="44.70261" lon="5.84715">
        <ele>1744</ele>
        <time>2021-08-10T13:04:33Z</time>
      </trkpt>
      <trkpt lat="44.7026" lon="5.84722">
        <ele>1742.1999511719</ele>
        <time>2021-08-10T13:04:50Z</time>
      </trkpt>
      <trkpt lat="44.70255" lon="5.84735">
        <ele>1740.5999755859</ele>
        <time>2021-08-10T13:05:05Z</time>
      </trkpt>
      <trkpt lat="44.7025" lon="5.84744">
        <ele>1739.5999755859</ele>
        <time>2021-08-10T13:05:20Z</time>
      </trkpt>
      <trkpt lat="44.70246" lon="5.84755">
        <ele>1738</ele>
        <time>2021-08-10T13:05:36Z</time>
      </trkpt>
      <trkpt lat="44.7024" lon="5.84764">
        <ele>1736.4000244141</ele>
        <time>2021-08-10T13:06:01Z</time>
      </trkpt>
      <trkpt lat="44.7023" lon="5.84776">
        <ele>1734.8000488281</ele>
        <time>2021-08-10T13:06:18Z</time>
      </trkpt>
      <trkpt lat="44.70224" lon="5.84779">
        <ele>1732.5999755859</ele>
        <time>2021-08-10T13:06:31Z</time>
      </trkpt>
      <trkpt lat="44.7022" lon="5.84787">
        <ele>1730</ele>
        <time>2021-08-10T13:06:53Z</time>
      </trkpt>
      <trkpt lat="44.70215" lon="5.84799">
        <ele>1728.1999511719</ele>
        <time>2021-08-10T13:07:08Z</time>
      </trkpt>
      <trkpt lat="44.70212" lon="5.84808">
        <ele>1725.8000488281</ele>
        <time>2021-08-10T13:07:23Z</time>
      </trkpt>
      <trkpt lat="44.70204" lon="5.84815">
        <ele>1723.1999511719</ele>
        <time>2021-08-10T13:07:44Z</time>
      </trkpt>
      <trkpt lat="44.702" lon="5.84824">
        <ele>1721.5999755859</ele>
        <time>2021-08-10T13:07:55Z</time>
      </trkpt>
      <trkpt lat="44.70193" lon="5.84833">
        <ele>1719</ele>
        <time>2021-08-10T13:08:09Z</time>
      </trkpt>
      <trkpt lat="44.70181" lon="5.84842">
        <ele>1716</ele>
        <time>2021-08-10T13:08:27Z</time>
      </trkpt>
      <trkpt lat="44.70179" lon="5.8485">
        <ele>1714</ele>
        <time>2021-08-10T13:08:47Z</time>
      </trkpt>
      <trkpt lat="44.70181" lon="5.84847">
        <ele>1713.5999755859</ele>
        <time>2021-08-10T13:09:13Z</time>
      </trkpt>
      <trkpt lat="44.70181" lon="5.84848">
        <ele>1713.8000488281</ele>
        <time>2021-08-10T13:09:44Z</time>
      </trkpt>
      <trkpt lat="44.70176" lon="5.84851">
        <ele>1713.8000488281</ele>
        <time>2021-08-10T13:10:12Z</time>
      </trkpt>
      <trkpt lat="44.70181" lon="5.84867">
        <ele>1712</ele>
        <time>2021-08-10T13:10:32Z</time>
      </trkpt>
      <trkpt lat="44.70186" lon="5.84873">
        <ele>1710.1999511719</ele>
        <time>2021-08-10T13:10:48Z</time>
      </trkpt>
      <trkpt lat="44.70188" lon="5.84882">
        <ele>1709.1999511719</ele>
        <time>2021-08-10T13:10:56Z</time>
      </trkpt>
      <trkpt lat="44.70192" lon="5.84907">
        <ele>1707.1999511719</ele>
        <time>2021-08-10T13:11:15Z</time>
      </trkpt>
      <trkpt lat="44.70194" lon="5.84933">
        <ele>1707.5999755859</ele>
        <time>2021-08-10T13:11:37Z</time>
      </trkpt>
      <trkpt lat="44.70197" lon="5.84954">
        <ele>1707.5999755859</ele>
        <time>2021-08-10T13:11:55Z</time>
      </trkpt>
      <trkpt lat="44.70197" lon="5.84958">
        <ele>1707.4000244141</ele>
        <time>2021-08-10T13:11:58Z</time>
      </trkpt>
      <trkpt lat="44.702" lon="5.84963">
        <ele>1705.4000244141</ele>
        <time>2021-08-10T13:12:17Z</time>
      </trkpt>
      <trkpt lat="44.70201" lon="5.8498">
        <ele>1704.1999511719</ele>
        <time>2021-08-10T13:12:33Z</time>
      </trkpt>
      <trkpt lat="44.70199" lon="5.8499">
        <ele>1701.5999755859</ele>
        <time>2021-08-10T13:12:50Z</time>
      </trkpt>
      <trkpt lat="44.702" lon="5.85005">
        <ele>1700.8000488281</ele>
        <time>2021-08-10T13:13:12Z</time>
      </trkpt>
      <trkpt lat="44.70203" lon="5.85017">
        <ele>1699.4000244141</ele>
        <time>2021-08-10T13:13:24Z</time>
      </trkpt>
      <trkpt lat="44.70207" lon="5.85033">
        <ele>1698.4000244141</ele>
        <time>2021-08-10T13:13:37Z</time>
      </trkpt>
      <trkpt lat="44.70209" lon="5.85036">
        <ele>1698.4000244141</ele>
        <time>2021-08-10T13:13:40Z</time>
      </trkpt>
      <trkpt lat="44.70217" lon="5.85056">
        <ele>1698.4000244141</ele>
        <time>2021-08-10T13:13:59Z</time>
      </trkpt>
      <trkpt lat="44.70233" lon="5.85064">
        <ele>1698.1999511719</ele>
        <time>2021-08-10T13:14:19Z</time>
      </trkpt>
      <trkpt lat="44.70247" lon="5.85069">
        <ele>1698.1999511719</ele>
        <time>2021-08-10T13:14:36Z</time>
      </trkpt>
      <trkpt lat="44.70256" lon="5.85081">
        <ele>1698.1999511719</ele>
        <time>2021-08-10T13:14:51Z</time>
      </trkpt>
      <trkpt lat="44.70267" lon="5.85089">
        <ele>1696.4000244141</ele>
        <time>2021-08-10T13:15:08Z</time>
      </trkpt>
      <trkpt lat="44.70276" lon="5.851">
        <ele>1695</ele>
        <time>2021-08-10T13:15:24Z</time>
      </trkpt>
      <trkpt lat="44.70282" lon="5.85112">
        <ele>1692.8000488281</ele>
        <time>2021-08-10T13:15:40Z</time>
      </trkpt>
      <trkpt lat="44.70288" lon="5.85112">
        <ele>1689.8000488281</ele>
        <time>2021-08-10T13:15:55Z</time>
      </trkpt>
      <trkpt lat="44.70304" lon="5.8512">
        <ele>1687.5999755859</ele>
        <time>2021-08-10T13:16:18Z</time>
      </trkpt>
      <trkpt lat="44.70317" lon="5.85132">
        <ele>1686</ele>
        <time>2021-08-10T13:16:36Z</time>
      </trkpt>
      <trkpt lat="44.70329" lon="5.85141">
        <ele>1684.1999511719</ele>
        <time>2021-08-10T13:16:55Z</time>
      </trkpt>
      <trkpt lat="44.7034" lon="5.85154">
        <ele>1681.1999511719</ele>
        <time>2021-08-10T13:17:15Z</time>
      </trkpt>
      <trkpt lat="44.70348" lon="5.85161">
        <ele>1678.4000244141</ele>
        <time>2021-08-10T13:17:32Z</time>
      </trkpt>
      <trkpt lat="44.70355" lon="5.85171">
        <ele>1675.8000488281</ele>
        <time>2021-08-10T13:17:49Z</time>
      </trkpt>
      <trkpt lat="44.70362" lon="5.85179">
        <ele>1673</ele>
        <time>2021-08-10T13:18:07Z</time>
      </trkpt>
      <trkpt lat="44.70368" lon="5.85188">
        <ele>1670.1999511719</ele>
        <time>2021-08-10T13:18:23Z</time>
      </trkpt>
      <trkpt lat="44.70374" lon="5.85201">
        <ele>1667.4000244141</ele>
        <time>2021-08-10T13:18:41Z</time>
      </trkpt>
      <trkpt lat="44.70379" lon="5.85209">
        <ele>1666.5999755859</ele>
        <time>2021-08-10T13:18:50Z</time>
      </trkpt>
      <trkpt lat="44.70386" lon="5.8522">
        <ele>1664.5999755859</ele>
        <time>2021-08-10T13:19:06Z</time>
      </trkpt>
      <trkpt lat="44.70389" lon="5.85233">
        <ele>1662.8000488281</ele>
        <time>2021-08-10T13:19:23Z</time>
      </trkpt>
      <trkpt lat="44.70396" lon="5.85245">
        <ele>1660.4000244141</ele>
        <time>2021-08-10T13:19:43Z</time>
      </trkpt>
      <trkpt lat="44.70399" lon="5.85259">
        <ele>1658</ele>
        <time>2021-08-10T13:19:59Z</time>
      </trkpt>
      <trkpt lat="44.70406" lon="5.85268">
        <ele>1655</ele>
        <time>2021-08-10T13:20:18Z</time>
      </trkpt>
      <trkpt lat="44.70414" lon="5.8528">
        <ele>1652.8000488281</ele>
        <time>2021-08-10T13:20:37Z</time>
      </trkpt>
      <trkpt lat="44.7042" lon="5.85287">
        <ele>1651.4000244141</ele>
        <time>2021-08-10T13:20:57Z</time>
      </trkpt>
      <trkpt lat="44.70424" lon="5.85301">
        <ele>1648.8000488281</ele>
        <time>2021-08-10T13:21:15Z</time>
      </trkpt>
      <trkpt lat="44.7043" lon="5.85313">
        <ele>1645.8000488281</ele>
        <time>2021-08-10T13:21:32Z</time>
      </trkpt>
      <trkpt lat="44.70434" lon="5.85324">
        <ele>1643.5999755859</ele>
        <time>2021-08-10T13:21:49Z</time>
      </trkpt>
      <trkpt lat="44.7044" lon="5.85333">
        <ele>1640.8000488281</ele>
        <time>2021-08-10T13:22:05Z</time>
      </trkpt>
      <trkpt lat="44.70442" lon="5.8534">
        <ele>1638.5999755859</ele>
        <time>2021-08-10T13:22:26Z</time>
      </trkpt>
      <trkpt lat="44.70442" lon="5.85351">
        <ele>1636</ele>
        <time>2021-08-10T13:22:49Z</time>
      </trkpt>
      <trkpt lat="44.70443" lon="5.85356">
        <ele>1633.8000488281</ele>
        <time>2021-08-10T13:23:07Z</time>
      </trkpt>
      <trkpt lat="44.70448" lon="5.85365">
        <ele>1630.5999755859</ele>
        <time>2021-08-10T13:23:26Z</time>
      </trkpt>
      <trkpt lat="44.70452" lon="5.85375">
        <ele>1627.4000244141</ele>
        <time>2021-08-10T13:23:42Z</time>
      </trkpt>
      <trkpt lat="44.70456" lon="5.85385">
        <ele>1624.5999755859</ele>
        <time>2021-08-10T13:24:01Z</time>
      </trkpt>
      <trkpt lat="44.70459" lon="5.85399">
        <ele>1623.1999511719</ele>
        <time>2021-08-10T13:24:19Z</time>
      </trkpt>
      <trkpt lat="44.70467" lon="5.85414">
        <ele>1620.1999511719</ele>
        <time>2021-08-10T13:24:38Z</time>
      </trkpt>
      <trkpt lat="44.70475" lon="5.85422">
        <ele>1616.8000488281</ele>
        <time>2021-08-10T13:24:55Z</time>
      </trkpt>
      <trkpt lat="44.70475" lon="5.85441">
        <ele>1614</ele>
        <time>2021-08-10T13:25:18Z</time>
      </trkpt>
      <trkpt lat="44.70476" lon="5.85457">
        <ele>1611.4000244141</ele>
        <time>2021-08-10T13:25:36Z</time>
      </trkpt>
      <trkpt lat="44.70476" lon="5.8547">
        <ele>1608.1999511719</ele>
        <time>2021-08-10T13:25:52Z</time>
      </trkpt>
      <trkpt lat="44.70474" lon="5.85484">
        <ele>1605.1999511719</ele>
        <time>2021-08-10T13:26:13Z</time>
      </trkpt>
      <trkpt lat="44.70471" lon="5.85499">
        <ele>1603.4000244141</ele>
        <time>2021-08-10T13:26:40Z</time>
      </trkpt>
      <trkpt lat="44.7047" lon="5.85502">
        <ele>1603</ele>
        <time>2021-08-10T13:26:43Z</time>
      </trkpt>
      <trkpt lat="44.70464" lon="5.85521">
        <ele>1600.4000244141</ele>
        <time>2021-08-10T13:27:00Z</time>
      </trkpt>
      <trkpt lat="44.70459" lon="5.85543">
        <ele>1597</ele>
        <time>2021-08-10T13:27:18Z</time>
      </trkpt>
      <trkpt lat="44.70459" lon="5.85552">
        <ele>1596</ele>
        <time>2021-08-10T13:27:26Z</time>
      </trkpt>
      <trkpt lat="44.7046" lon="5.8557">
        <ele>1594</ele>
        <time>2021-08-10T13:27:44Z</time>
      </trkpt>
      <trkpt lat="44.70458" lon="5.85586">
        <ele>1593</ele>
        <time>2021-08-10T13:27:59Z</time>
      </trkpt>
      <trkpt lat="44.7046" lon="5.85603">
        <ele>1592.4000244141</ele>
        <time>2021-08-10T13:28:15Z</time>
      </trkpt>
      <trkpt lat="44.70462" lon="5.8561">
        <ele>1591.5999755859</ele>
        <time>2021-08-10T13:28:27Z</time>
      </trkpt>
      <trkpt lat="44.70463" lon="5.8563">
        <ele>1589.8000488281</ele>
        <time>2021-08-10T13:28:44Z</time>
      </trkpt>
      <trkpt lat="44.70463" lon="5.85635">
        <ele>1589.4000244141</ele>
        <time>2021-08-10T13:28:48Z</time>
      </trkpt>
      <trkpt lat="44.70463" lon="5.85653">
        <ele>1587.8000488281</ele>
        <time>2021-08-10T13:29:05Z</time>
      </trkpt>
      <trkpt lat="44.70462" lon="5.85669">
        <ele>1584.8000488281</ele>
        <time>2021-08-10T13:29:23Z</time>
      </trkpt>
      <trkpt lat="44.7046" lon="5.85678">
        <ele>1583.8000488281</ele>
        <time>2021-08-10T13:29:31Z</time>
      </trkpt>
      <trkpt lat="44.70457" lon="5.85707">
        <ele>1581.8000488281</ele>
        <time>2021-08-10T13:29:54Z</time>
      </trkpt>
      <trkpt lat="44.70458" lon="5.85727">
        <ele>1579.1999511719</ele>
        <time>2021-08-10T13:30:13Z</time>
      </trkpt>
      <trkpt lat="44.70455" lon="5.85738">
        <ele>1577</ele>
        <time>2021-08-10T13:30:29Z</time>
      </trkpt>
      <trkpt lat="44.70457" lon="5.85756">
        <ele>1575</ele>
        <time>2021-08-10T13:30:47Z</time>
      </trkpt>
      <trkpt lat="44.70463" lon="5.8577">
        <ele>1573</ele>
        <time>2021-08-10T13:31:05Z</time>
      </trkpt>
      <trkpt lat="44.70467" lon="5.85786">
        <ele>1570.4000244141</ele>
        <time>2021-08-10T13:31:24Z</time>
      </trkpt>
      <trkpt lat="44.70466" lon="5.85801">
        <ele>1567.1999511719</ele>
        <time>2021-08-10T13:31:39Z</time>
      </trkpt>
      <trkpt lat="44.70462" lon="5.8582">
        <ele>1565</ele>
        <time>2021-08-10T13:31:55Z</time>
      </trkpt>
      <trkpt lat="44.70455" lon="5.85838">
        <ele>1561.8000488281</ele>
        <time>2021-08-10T13:32:15Z</time>
      </trkpt>
      <trkpt lat="44.70453" lon="5.85859">
        <ele>1559</ele>
        <time>2021-08-10T13:32:34Z</time>
      </trkpt>
      <trkpt lat="44.70451" lon="5.8587">
        <ele>1557</ele>
        <time>2021-08-10T13:32:44Z</time>
      </trkpt>
      <trkpt lat="44.70449" lon="5.85879">
        <ele>1556.1999511719</ele>
        <time>2021-08-10T13:32:50Z</time>
      </trkpt>
      <trkpt lat="44.70449" lon="5.85886">
        <ele>1555.5999755859</ele>
        <time>2021-08-10T13:32:55Z</time>
      </trkpt>
      <trkpt lat="44.70448" lon="5.85902">
        <ele>1553.8000488281</ele>
        <time>2021-08-10T13:33:08Z</time>
      </trkpt>
      <trkpt lat="44.70447" lon="5.85916">
        <ele>1553</ele>
        <time>2021-08-10T13:33:17Z</time>
      </trkpt>
      <trkpt lat="44.70447" lon="5.85923">
        <ele>1553</ele>
        <time>2021-08-10T13:33:21Z</time>
      </trkpt>
      <trkpt lat="44.70448" lon="5.8593">
        <ele>1553</ele>
        <time>2021-08-10T13:33:26Z</time>
      </trkpt>
      <trkpt lat="44.70454" lon="5.85946">
        <ele>1552.1999511719</ele>
        <time>2021-08-10T13:33:36Z</time>
      </trkpt>
      <trkpt lat="44.70463" lon="5.85965">
        <ele>1551.1999511719</ele>
        <time>2021-08-10T13:34:01Z</time>
      </trkpt>
      <trkpt lat="44.70476" lon="5.85985">
        <ele>1548.1999511719</ele>
        <time>2021-08-10T13:34:27Z</time>
      </trkpt>
      <trkpt lat="44.70488" lon="5.8601">
        <ele>1545</ele>
        <time>2021-08-10T13:34:45Z</time>
      </trkpt>
      <trkpt lat="44.70488" lon="5.86013">
        <ele>1544.5999755859</ele>
        <time>2021-08-10T13:34:47Z</time>
      </trkpt>
      <trkpt lat="44.70488" lon="5.86024">
        <ele>1543.8000488281</ele>
        <time>2021-08-10T13:34:54Z</time>
      </trkpt>
      <trkpt lat="44.70495" lon="5.86045">
        <ele>1543.4000244141</ele>
        <time>2021-08-10T13:35:11Z</time>
      </trkpt>
      <trkpt lat="44.70496" lon="5.86073">
        <ele>1540.8000488281</ele>
        <time>2021-08-10T13:35:35Z</time>
      </trkpt>
      <trkpt lat="44.70498" lon="5.86093">
        <ele>1537.5999755859</ele>
        <time>2021-08-10T13:35:53Z</time>
      </trkpt>
      <trkpt lat="44.70501" lon="5.86112">
        <ele>1535.4000244141</ele>
        <time>2021-08-10T13:36:13Z</time>
      </trkpt>
      <trkpt lat="44.70498" lon="5.86133">
        <ele>1532.8000488281</ele>
        <time>2021-08-10T13:36:34Z</time>
      </trkpt>
      <trkpt lat="44.70481" lon="5.8614">
        <ele>1530</ele>
        <time>2021-08-10T13:36:58Z</time>
      </trkpt>
      <trkpt lat="44.70467" lon="5.86143">
        <ele>1527</ele>
        <time>2021-08-10T13:37:19Z</time>
      </trkpt>
      <trkpt lat="44.70455" lon="5.86153">
        <ele>1524.1999511719</ele>
        <time>2021-08-10T13:37:39Z</time>
      </trkpt>
      <trkpt lat="44.70447" lon="5.86161">
        <ele>1522.5999755859</ele>
        <time>2021-08-10T13:37:59Z</time>
      </trkpt>
      <trkpt lat="44.70434" lon="5.86176">
        <ele>1519.5999755859</ele>
        <time>2021-08-10T13:38:17Z</time>
      </trkpt>
      <trkpt lat="44.70421" lon="5.86191">
        <ele>1516.5999755859</ele>
        <time>2021-08-10T13:38:34Z</time>
      </trkpt>
      <trkpt lat="44.70415" lon="5.86208">
        <ele>1513.5999755859</ele>
        <time>2021-08-10T13:38:51Z</time>
      </trkpt>
      <trkpt lat="44.70413" lon="5.86226">
        <ele>1510.4000244141</ele>
        <time>2021-08-10T13:39:09Z</time>
      </trkpt>
      <trkpt lat="44.70411" lon="5.86244">
        <ele>1507.4000244141</ele>
        <time>2021-08-10T13:39:26Z</time>
      </trkpt>
      <trkpt lat="44.70404" lon="5.86263">
        <ele>1504.1999511719</ele>
        <time>2021-08-10T13:39:43Z</time>
      </trkpt>
      <trkpt lat="44.70399" lon="5.8628">
        <ele>1501</ele>
        <time>2021-08-10T13:39:58Z</time>
      </trkpt>
      <trkpt lat="44.70394" lon="5.86297">
        <ele>1497.8000488281</ele>
        <time>2021-08-10T13:40:16Z</time>
      </trkpt>
      <trkpt lat="44.70397" lon="5.8633">
        <ele>1494.8000488281</ele>
        <time>2021-08-10T13:40:37Z</time>
      </trkpt>
      <trkpt lat="44.70396" lon="5.86356">
        <ele>1491.8000488281</ele>
        <time>2021-08-10T13:40:59Z</time>
      </trkpt>
      <trkpt lat="44.70398" lon="5.86379">
        <ele>1488.4000244141</ele>
        <time>2021-08-10T13:41:19Z</time>
      </trkpt>
      <trkpt lat="44.70397" lon="5.86397">
        <ele>1485.1999511719</ele>
        <time>2021-08-10T13:41:36Z</time>
      </trkpt>
      <trkpt lat="44.70401" lon="5.86418">
        <ele>1482.4000244141</ele>
        <time>2021-08-10T13:41:54Z</time>
      </trkpt>
      <trkpt lat="44.70404" lon="5.86434">
        <ele>1479.1999511719</ele>
        <time>2021-08-10T13:42:09Z</time>
      </trkpt>
      <trkpt lat="44.7041" lon="5.86451">
        <ele>1476</ele>
        <time>2021-08-10T13:42:25Z</time>
      </trkpt>
      <trkpt lat="44.70415" lon="5.86466">
        <ele>1472.8000488281</ele>
        <time>2021-08-10T13:42:44Z</time>
      </trkpt>
      <trkpt lat="44.70425" lon="5.8648">
        <ele>1469.8000488281</ele>
        <time>2021-08-10T13:42:58Z</time>
      </trkpt>
      <trkpt lat="44.70428" lon="5.86498">
        <ele>1466.5999755859</ele>
        <time>2021-08-10T13:43:16Z</time>
      </trkpt>
      <trkpt lat="44.70425" lon="5.86518">
        <ele>1463.5999755859</ele>
        <time>2021-08-10T13:43:34Z</time>
      </trkpt>
      <trkpt lat="44.70421" lon="5.86528">
        <ele>1461.8000488281</ele>
        <time>2021-08-10T13:43:50Z</time>
      </trkpt>
      <trkpt lat="44.70401" lon="5.86519">
        <ele>1460.8000488281</ele>
        <time>2021-08-10T13:44:10Z</time>
      </trkpt>
      <trkpt lat="44.70396" lon="5.86517">
        <ele>1461</ele>
        <time>2021-08-10T13:44:15Z</time>
      </trkpt>
      <trkpt lat="44.70371" lon="5.86522">
        <ele>1461.4000244141</ele>
        <time>2021-08-10T13:44:39Z</time>
      </trkpt>
      <trkpt lat="44.70353" lon="5.86525">
        <ele>1461.5999755859</ele>
        <time>2021-08-10T13:44:59Z</time>
      </trkpt>
      <trkpt lat="44.70331" lon="5.86532">
        <ele>1461.4000244141</ele>
        <time>2021-08-10T13:45:21Z</time>
      </trkpt>
      <trkpt lat="44.70309" lon="5.86529">
        <ele>1460.5999755859</ele>
        <time>2021-08-10T13:45:43Z</time>
      </trkpt>
      <trkpt lat="44.70303" lon="5.86527">
        <ele>1460.1999511719</ele>
        <time>2021-08-10T13:45:48Z</time>
      </trkpt>
      <trkpt lat="44.70287" lon="5.86523">
        <ele>1459.5999755859</ele>
        <time>2021-08-10T13:46:06Z</time>
      </trkpt>
      <trkpt lat="44.70275" lon="5.8652">
        <ele>1459.4000244141</ele>
        <time>2021-08-10T13:46:21Z</time>
      </trkpt>
      <trkpt lat="44.70261" lon="5.86524">
        <ele>1459</ele>
        <time>2021-08-10T13:46:35Z</time>
      </trkpt>
      <trkpt lat="44.70246" lon="5.86527">
        <ele>1458.1999511719</ele>
        <time>2021-08-10T13:46:51Z</time>
      </trkpt>
      <trkpt lat="44.70225" lon="5.86524">
        <ele>1456.4000244141</ele>
        <time>2021-08-10T13:47:11Z</time>
      </trkpt>
      <trkpt lat="44.70207" lon="5.8651">
        <ele>1455.5999755859</ele>
        <time>2021-08-10T13:47:30Z</time>
      </trkpt>
      <trkpt lat="44.70194" lon="5.86495">
        <ele>1454.8000488281</ele>
        <time>2021-08-10T13:47:46Z</time>
      </trkpt>
      <trkpt lat="44.70193" lon="5.86493">
        <ele>1454.8000488281</ele>
        <time>2021-08-10T13:47:47Z</time>
      </trkpt>
      <trkpt lat="44.70177" lon="5.86482">
        <ele>1454</ele>
        <time>2021-08-10T13:48:03Z</time>
      </trkpt>
      <trkpt lat="44.70159" lon="5.86476">
        <ele>1452.4000244141</ele>
        <time>2021-08-10T13:48:21Z</time>
      </trkpt>
      <trkpt lat="44.70147" lon="5.86473">
        <ele>1451</ele>
        <time>2021-08-10T13:48:33Z</time>
      </trkpt>
      <trkpt lat="44.70132" lon="5.86468">
        <ele>1449.8000488281</ele>
        <time>2021-08-10T13:48:48Z</time>
      </trkpt>
      <trkpt lat="44.70117" lon="5.86465">
        <ele>1448.5999755859</ele>
        <time>2021-08-10T13:49:05Z</time>
      </trkpt>
      <trkpt lat="44.70092" lon="5.86468">
        <ele>1446.5999755859</ele>
        <time>2021-08-10T13:49:28Z</time>
      </trkpt>
      <trkpt lat="44.70075" lon="5.86468">
        <ele>1445.8000488281</ele>
        <time>2021-08-10T13:49:44Z</time>
      </trkpt>
      <trkpt lat="44.70055" lon="5.86458">
        <ele>1445</ele>
        <time>2021-08-10T13:50:05Z</time>
      </trkpt>
      <trkpt lat="44.70036" lon="5.86452">
        <ele>1444.1999511719</ele>
        <time>2021-08-10T13:50:22Z</time>
      </trkpt>
      <trkpt lat="44.70016" lon="5.8645">
        <ele>1444</ele>
        <time>2021-08-10T13:50:40Z</time>
      </trkpt>
      <trkpt lat="44.69996" lon="5.86444">
        <ele>1444.1999511719</ele>
        <time>2021-08-10T13:51:00Z</time>
      </trkpt>
      <trkpt lat="44.69977" lon="5.86434">
        <ele>1444.8000488281</ele>
        <time>2021-08-10T13:51:20Z</time>
      </trkpt>
      <trkpt lat="44.69963" lon="5.86422">
        <ele>1445.1999511719</ele>
        <time>2021-08-10T13:51:35Z</time>
      </trkpt>
      <trkpt lat="44.69959" lon="5.86418">
        <ele>1445.1999511719</ele>
        <time>2021-08-10T13:51:39Z</time>
      </trkpt>
      <trkpt lat="44.69946" lon="5.86408">
        <ele>1445.4000244141</ele>
        <time>2021-08-10T13:51:54Z</time>
      </trkpt>
      <trkpt lat="44.69931" lon="5.86393">
        <ele>1445.8000488281</ele>
        <time>2021-08-10T13:52:11Z</time>
      </trkpt>
      <trkpt lat="44.69915" lon="5.86382">
        <ele>1445.8000488281</ele>
        <time>2021-08-10T13:52:28Z</time>
      </trkpt>
      <trkpt lat="44.69913" lon="5.86379">
        <ele>1445.8000488281</ele>
        <time>2021-08-10T13:52:31Z</time>
      </trkpt>
      <trkpt lat="44.69892" lon="5.86366">
        <ele>1446</ele>
        <time>2021-08-10T13:52:51Z</time>
      </trkpt>
      <trkpt lat="44.69872" lon="5.86357">
        <ele>1445.8000488281</ele>
        <time>2021-08-10T13:53:13Z</time>
      </trkpt>
      <trkpt lat="44.69852" lon="5.86357">
        <ele>1445.8000488281</ele>
        <time>2021-08-10T13:53:33Z</time>
      </trkpt>
      <trkpt lat="44.6983" lon="5.86353">
        <ele>1445</ele>
        <time>2021-08-10T13:53:55Z</time>
      </trkpt>
      <trkpt lat="44.69813" lon="5.8635">
        <ele>1444.5999755859</ele>
        <time>2021-08-10T13:54:11Z</time>
      </trkpt>
      <trkpt lat="44.69809" lon="5.86351">
        <ele>1444.5999755859</ele>
        <time>2021-08-10T13:54:14Z</time>
      </trkpt>
      <trkpt lat="44.6979" lon="5.86353">
        <ele>1444.8000488281</ele>
        <time>2021-08-10T13:54:34Z</time>
      </trkpt>
      <trkpt lat="44.69788" lon="5.86353">
        <ele>1444.8000488281</ele>
        <time>2021-08-10T13:54:36Z</time>
      </trkpt>
      <trkpt lat="44.69772" lon="5.86349">
        <ele>1443.8000488281</ele>
        <time>2021-08-10T13:54:53Z</time>
      </trkpt>
      <trkpt lat="44.6975" lon="5.86342">
        <ele>1441.1999511719</ele>
        <time>2021-08-10T13:55:14Z</time>
      </trkpt>
      <trkpt lat="44.69733" lon="5.86338">
        <ele>1439.8000488281</ele>
        <time>2021-08-10T13:55:32Z</time>
      </trkpt>
      <trkpt lat="44.69714" lon="5.86335">
        <ele>1437.8000488281</ele>
        <time>2021-08-10T13:55:53Z</time>
      </trkpt>
      <trkpt lat="44.69692" lon="5.8633">
        <ele>1435.1999511719</ele>
        <time>2021-08-10T13:56:15Z</time>
      </trkpt>
      <trkpt lat="44.69678" lon="5.86327">
        <ele>1433.1999511719</ele>
        <time>2021-08-10T13:56:33Z</time>
      </trkpt>
      <trkpt lat="44.69661" lon="5.86331">
        <ele>1431.5999755859</ele>
        <time>2021-08-10T13:56:57Z</time>
      </trkpt>
      <trkpt lat="44.69647" lon="5.86333">
        <ele>1430.4000244141</ele>
        <time>2021-08-10T13:57:14Z</time>
      </trkpt>
      <trkpt lat="44.6964" lon="5.86335">
        <ele>1429.5999755859</ele>
        <time>2021-08-10T13:57:22Z</time>
      </trkpt>
      <trkpt lat="44.69629" lon="5.86342">
        <ele>1428.1999511719</ele>
        <time>2021-08-10T13:57:39Z</time>
      </trkpt>
      <trkpt lat="44.69622" lon="5.86338">
        <ele>1427.4000244141</ele>
        <time>2021-08-10T13:58:03Z</time>
      </trkpt>
      <trkpt lat="44.69604" lon="5.86333">
        <ele>1424.8000488281</ele>
        <time>2021-08-10T13:58:23Z</time>
      </trkpt>
      <trkpt lat="44.69597" lon="5.86333">
        <ele>1423.8000488281</ele>
        <time>2021-08-10T13:58:30Z</time>
      </trkpt>
      <trkpt lat="44.6958" lon="5.8633">
        <ele>1422</ele>
        <time>2021-08-10T13:58:48Z</time>
      </trkpt>
      <trkpt lat="44.6956" lon="5.86327">
        <ele>1420.5999755859</ele>
        <time>2021-08-10T13:59:07Z</time>
      </trkpt>
      <trkpt lat="44.69542" lon="5.86325">
        <ele>1419.5999755859</ele>
        <time>2021-08-10T13:59:28Z</time>
      </trkpt>
      <trkpt lat="44.6953" lon="5.8633">
        <ele>1418.4000244141</ele>
        <time>2021-08-10T13:59:43Z</time>
      </trkpt>
      <trkpt lat="44.69514" lon="5.86329">
        <ele>1415.8000488281</ele>
        <time>2021-08-10T14:00:00Z</time>
      </trkpt>
      <trkpt lat="44.69499" lon="5.86325">
        <ele>1413.5999755859</ele>
        <time>2021-08-10T14:00:16Z</time>
      </trkpt>
      <trkpt lat="44.69483" lon="5.86324">
        <ele>1411.5999755859</ele>
        <time>2021-08-10T14:00:33Z</time>
      </trkpt>
      <trkpt lat="44.69463" lon="5.86329">
        <ele>1409.8000488281</ele>
        <time>2021-08-10T14:00:54Z</time>
      </trkpt>
      <trkpt lat="44.69454" lon="5.86332">
        <ele>1409</ele>
        <time>2021-08-10T14:01:03Z</time>
      </trkpt>
      <trkpt lat="44.69447" lon="5.86334">
        <ele>1408.4000244141</ele>
        <time>2021-08-10T14:01:09Z</time>
      </trkpt>
      <trkpt lat="44.69432" lon="5.86338">
        <ele>1407.4000244141</ele>
        <time>2021-08-10T14:01:25Z</time>
      </trkpt>
      <trkpt lat="44.6942" lon="5.86343">
        <ele>1406.1999511719</ele>
        <time>2021-08-10T14:01:35Z</time>
      </trkpt>
      <trkpt lat="44.69405" lon="5.86352">
        <ele>1404.4000244141</ele>
        <time>2021-08-10T14:01:53Z</time>
      </trkpt>
      <trkpt lat="44.69398" lon="5.86357">
        <ele>1404.1999511719</ele>
        <time>2021-08-10T14:02:01Z</time>
      </trkpt>
      <trkpt lat="44.69375" lon="5.86366">
        <ele>1403.5999755859</ele>
        <time>2021-08-10T14:02:24Z</time>
      </trkpt>
      <trkpt lat="44.69356" lon="5.86364">
        <ele>1403.1999511719</ele>
        <time>2021-08-10T14:02:44Z</time>
      </trkpt>
      <trkpt lat="44.69342" lon="5.86365">
        <ele>1402.4000244141</ele>
        <time>2021-08-10T14:03:00Z</time>
      </trkpt>
      <trkpt lat="44.69326" lon="5.86373">
        <ele>1400.4000244141</ele>
        <time>2021-08-10T14:03:22Z</time>
      </trkpt>
      <trkpt lat="44.69316" lon="5.86385">
        <ele>1399.4000244141</ele>
        <time>2021-08-10T14:03:33Z</time>
      </trkpt>
      <trkpt lat="44.69307" lon="5.86406">
        <ele>1398.1999511719</ele>
        <time>2021-08-10T14:03:50Z</time>
      </trkpt>
      <trkpt lat="44.69295" lon="5.86414">
        <ele>1396.5999755859</ele>
        <time>2021-08-10T14:04:06Z</time>
      </trkpt>
      <trkpt lat="44.69283" lon="5.86405">
        <ele>1396.4000244141</ele>
        <time>2021-08-10T14:04:20Z</time>
      </trkpt>
      <trkpt lat="44.69262" lon="5.86385">
        <ele>1397.5999755859</ele>
        <time>2021-08-10T14:04:44Z</time>
      </trkpt>
      <trkpt lat="44.6924" lon="5.86373">
        <ele>1398.4000244141</ele>
        <time>2021-08-10T14:05:10Z</time>
      </trkpt>
      <trkpt lat="44.69227" lon="5.86376">
        <ele>1398.4000244141</ele>
        <time>2021-08-10T14:05:22Z</time>
      </trkpt>
      <trkpt lat="44.6921" lon="5.86375">
        <ele>1398.1999511719</ele>
        <time>2021-08-10T14:05:39Z</time>
      </trkpt>
      <trkpt lat="44.69196" lon="5.86379">
        <ele>1398</ele>
        <time>2021-08-10T14:05:54Z</time>
      </trkpt>
      <trkpt lat="44.69189" lon="5.8638">
        <ele>1397.8000488281</ele>
        <time>2021-08-10T14:06:17Z</time>
      </trkpt>
      <trkpt lat="44.6919" lon="5.86379">
        <ele>1398</ele>
        <time>2021-08-10T14:06:23Z</time>
      </trkpt>
    </trkseg>
  </trk>
</gpx>